<?xml version='1.0' encoding='UTF-8'?><gpx version="1.1" creator="JPX - https://github.com/jenetics/jpx" xmlns="http://www.topografix.com/GPX/1/1"><trk><trkseg><trkpt lat="44.81277242162549" lon="9.431753084806735"><ele>252.99999999999997</ele><time>2026-03-29T10:13:50Z</time></trkpt><trkpt lat="44.81270943509526" lon="9.431711381276958"><ele>253.0</ele><time>2026-03-29T10:13:51Z</time></trkpt><trkpt lat="44.81258266877792" lon="9.431665923061862"><ele>253.0</ele><time>2026-03-29T10:13:53Z</time></trkpt><trkpt lat="44.8125244154563" lon="9.43163104494894"><ele>253.0</ele><time>2026-03-29T10:13:54Z</time></trkpt><trkpt lat="44.812454877854265" lon="9.431583011009623"><ele>252.99999999999997</ele><time>2026-03-29T10:13:55Z</time></trkpt><trkpt lat="44.81237961941644" lon="9.431532640934321"><ele>253.0</ele><time>2026-03-29T10:13:56Z</time></trkpt><trkpt lat="44.812284068003535" lon="9.431448126666888"><ele>252.83333333333331</ele><time>2026-03-29T10:13:57.999Z</time></trkpt><trkpt lat="44.81218020147215" lon="9.431377911412715"><ele>252.66666666666666</ele><time>2026-03-29T10:13:59.999Z</time></trkpt><trkpt lat="44.81219492794205" lon="9.431279379013223"><ele>252.5</ele><time>2026-03-29T10:14:08.999Z</time></trkpt><trkpt lat="44.81226611877809" lon="9.431308826569815"><ele>252.33333333333331</ele><time>2026-03-29T10:14:09.999Z</time></trkpt><trkpt lat="44.81235597026355" lon="9.431350404223638"><ele>252.16666666666666</ele><time>2026-03-29T10:14:10.999Z</time></trkpt><trkpt lat="44.81243757346924" lon="9.431397368453435"><ele>252.0</ele><time>2026-03-29T10:14:11.999Z</time></trkpt><trkpt lat="44.812534297709924" lon="9.431446966974248"><ele>252.0</ele><time>2026-03-29T10:14:12.999Z</time></trkpt><trkpt lat="44.8126139888634" lon="9.431495973662331"><ele>252.0</ele><time>2026-03-29T10:14:13.999Z</time></trkpt><trkpt lat="44.81272261861021" lon="9.431558842989716"><ele>252.0</ele><time>2026-03-29T10:14:14.999Z</time></trkpt><trkpt lat="44.81283266691277" lon="9.431623863326339"><ele>252.0</ele><time>2026-03-29T10:14:15.999Z</time></trkpt><trkpt lat="44.812925460232265" lon="9.431677762006007"><ele>252.0</ele><time>2026-03-29T10:14:16.999Z</time></trkpt><trkpt lat="44.81302532916096" lon="9.431733643991638"><ele>252.25</ele><time>2026-03-29T10:14:17.999Z</time></trkpt><trkpt lat="44.81313971636277" lon="9.43178926124822"><ele>252.5</ele><time>2026-03-29T10:14:18.999Z</time></trkpt><trkpt lat="44.81325061567731" lon="9.431827361227741"><ele>252.75</ele><time>2026-03-29T10:14:19.999Z</time></trkpt><trkpt lat="44.81335985846335" lon="9.431858887693807"><ele>253.0</ele><time>2026-03-29T10:14:20.999Z</time></trkpt><trkpt lat="44.81347433718089" lon="9.431856228134116"><ele>252.25</ele><time>2026-03-29T10:14:21.999Z</time></trkpt><trkpt lat="44.81360015554455" lon="9.431851589670588"><ele>251.5</ele><time>2026-03-29T10:14:22.999Z</time></trkpt><trkpt lat="44.81371875172655" lon="9.431833586548466"><ele>250.75</ele><time>2026-03-29T10:14:23.999Z</time></trkpt><trkpt lat="44.81384115821684" lon="9.43179823966179"><ele>250.0</ele><time>2026-03-29T10:14:24.999Z</time></trkpt><trkpt lat="44.81396162498692" lon="9.431746227716745"><ele>250.0</ele><time>2026-03-29T10:14:25.999Z</time></trkpt><trkpt lat="44.814076867235904" lon="9.431686908903012"><ele>250.0</ele><time>2026-03-29T10:14:26.999Z</time></trkpt><trkpt lat="44.81418396492056" lon="9.431617814498589"><ele>250.0</ele><time>2026-03-29T10:14:27.999Z</time></trkpt><trkpt lat="44.81429136475418" lon="9.431532429975224"><ele>250.0</ele><time>2026-03-29T10:14:28.999Z</time></trkpt><trkpt lat="44.814392471243856" lon="9.431429568406763"><ele>250.5</ele><time>2026-03-29T10:14:29.999Z</time></trkpt><trkpt lat="44.81449104296864" lon="9.431310990284631"><ele>251.0</ele><time>2026-03-29T10:14:30.999Z</time></trkpt><trkpt lat="44.81458623015022" lon="9.431187495676143"><ele>251.5</ele><time>2026-03-29T10:14:31.999Z</time></trkpt><trkpt lat="44.8146755675391" lon="9.431067784372173"><ele>252.0</ele><time>2026-03-29T10:14:32.999Z</time></trkpt><trkpt lat="44.814758716095845" lon="9.430946278818022"><ele>252.0</ele><time>2026-03-29T10:14:33.999Z</time></trkpt><trkpt lat="44.8148456480555" lon="9.430825685153538"><ele>252.0</ele><time>2026-03-29T10:14:34.999Z</time></trkpt><trkpt lat="44.814938140953416" lon="9.430711270194088"><ele>252.0</ele><time>2026-03-29T10:14:35.999Z</time></trkpt><trkpt lat="44.81503692898611" lon="9.4305878912378"><ele>252.0</ele><time>2026-03-29T10:14:36.999Z</time></trkpt><trkpt lat="44.815118372383296" lon="9.430486820029632"><ele>251.39999999999998</ele><time>2026-03-29T10:14:37.999Z</time></trkpt><trkpt lat="44.815196345457295" lon="9.430394819387011"><ele>250.79999999999998</ele><time>2026-03-29T10:14:38.999Z</time></trkpt><trkpt lat="44.81527088424312" lon="9.43029767980483"><ele>250.2</ele><time>2026-03-29T10:14:39.999Z</time></trkpt><trkpt lat="44.8153547086773" lon="9.43018310771236"><ele>249.6</ele><time>2026-03-29T10:14:40.999Z</time></trkpt><trkpt lat="44.81544365398655" lon="9.43006369036475"><ele>249.0</ele><time>2026-03-29T10:14:41.999Z</time></trkpt><trkpt lat="44.8155279104181" lon="9.42996246169326"><ele>249.0</ele><time>2026-03-29T10:14:42.999Z</time></trkpt><trkpt lat="44.8156001862698" lon="9.42988550872762"><ele>248.99999999999997</ele><time>2026-03-29T10:14:43.999Z</time></trkpt><trkpt lat="44.815669912273606" lon="9.429835749034618"><ele>248.99999999999997</ele><time>2026-03-29T10:14:44.999Z</time></trkpt><trkpt lat="44.81576493191076" lon="9.429818676474557"><ele>249.0</ele><time>2026-03-29T10:14:45.999Z</time></trkpt><trkpt lat="44.815865821465934" lon="9.42984868854459"><ele>249.0</ele><time>2026-03-29T10:14:46.999Z</time></trkpt><trkpt lat="44.815972992935116" lon="9.429909520466342"><ele>249.5</ele><time>2026-03-29T10:14:47.999Z</time></trkpt><trkpt lat="44.816086304031344" lon="9.429966510806377"><ele>250.0</ele><time>2026-03-29T10:14:48.999Z</time></trkpt><trkpt lat="44.81620460480773" lon="9.430013242250546"><ele>250.5</ele><time>2026-03-29T10:14:49.999Z</time></trkpt><trkpt lat="44.81632386913744" lon="9.430059288582562"><ele>251.0</ele><time>2026-03-29T10:14:50.999Z</time></trkpt><trkpt lat="44.81644211185827" lon="9.43010869090101"><ele>251.0</ele><time>2026-03-29T10:14:51.999Z</time></trkpt><trkpt lat="44.81655699798934" lon="9.430155584101307"><ele>251.0</ele><time>2026-03-29T10:14:52.999Z</time></trkpt><trkpt lat="44.81667171568476" lon="9.430200468118505"><ele>251.0</ele><time>2026-03-29T10:14:53.999Z</time></trkpt><trkpt lat="44.816781643046845" lon="9.430254211017484"><ele>251.0</ele><time>2026-03-29T10:14:54.999Z</time></trkpt><trkpt lat="44.816878680188985" lon="9.430316370702487"><ele>252.60000000000002</ele><time>2026-03-29T10:14:55.999Z</time></trkpt><trkpt lat="44.81696525100985" lon="9.43039342005147"><ele>254.20000000000002</ele><time>2026-03-29T10:14:56.999Z</time></trkpt><trkpt lat="44.81704871959479" lon="9.430488924363502"><ele>255.79999999999998</ele><time>2026-03-29T10:14:57.999Z</time></trkpt><trkpt lat="44.81709861968551" lon="9.430624113189296"><ele>257.4</ele><time>2026-03-29T10:14:58.999Z</time></trkpt><trkpt lat="44.817159984252015" lon="9.430747067128275"><ele>259.0</ele><time>2026-03-29T10:14:59.999Z</time></trkpt><trkpt lat="44.8171909302502" lon="9.43089522409974"><ele>260.25</ele><time>2026-03-29T10:15:00.999Z</time></trkpt><trkpt lat="44.81721130165733" lon="9.431049485167716"><ele>261.5</ele><time>2026-03-29T10:15:01.999Z</time></trkpt><trkpt lat="44.81723057669494" lon="9.431218775173885"><ele>262.75</ele><time>2026-03-29T10:15:02.999Z</time></trkpt><trkpt lat="44.81725311590545" lon="9.431392603958727"><ele>264.0</ele><time>2026-03-29T10:15:03.999Z</time></trkpt><trkpt lat="44.81727266809019" lon="9.431573579295057"><ele>265.4</ele><time>2026-03-29T10:15:04.999Z</time></trkpt><trkpt lat="44.81729543596988" lon="9.43174913284371"><ele>266.79999999999995</ele><time>2026-03-29T10:15:05.999Z</time></trkpt><trkpt lat="44.81731475026455" lon="9.431899241191378"><ele>268.20000000000005</ele><time>2026-03-29T10:15:06.999Z</time></trkpt><trkpt lat="44.81733040017139" lon="9.432016439869743"><ele>269.6</ele><time>2026-03-29T10:15:07.999Z</time></trkpt><trkpt lat="44.81735120663934" lon="9.432136102715894"><ele>271.0</ele><time>2026-03-29T10:15:08.999Z</time></trkpt><trkpt lat="44.81736283317464" lon="9.432270672068855"><ele>272.0</ele><time>2026-03-29T10:15:09.999Z</time></trkpt><trkpt lat="44.8173833996714" lon="9.432400318931373"><ele>273.0</ele><time>2026-03-29T10:15:10.999Z</time></trkpt><trkpt lat="44.817396729802006" lon="9.43253237430214"><ele>274.0</ele><time>2026-03-29T10:15:11.999Z</time></trkpt><trkpt lat="44.81740763908749" lon="9.432662164173664"><ele>275.0</ele><time>2026-03-29T10:15:12.999Z</time></trkpt><trkpt lat="44.81741841734235" lon="9.432790314918478"><ele>276.0</ele><time>2026-03-29T10:15:13.999Z</time></trkpt><trkpt lat="44.81742564301939" lon="9.432914818735092"><ele>276.5</ele><time>2026-03-29T10:15:14.999Z</time></trkpt><trkpt lat="44.817429469830785" lon="9.43306262392488"><ele>277.0</ele><time>2026-03-29T10:15:16Z</time></trkpt><trkpt lat="44.81741888115833" lon="9.433238033116458"><ele>277.5</ele><time>2026-03-29T10:15:17Z</time></trkpt><trkpt lat="44.81736304317309" lon="9.433411458239705"><ele>278.0</ele><time>2026-03-29T10:15:18Z</time></trkpt><trkpt lat="44.817312434251235" lon="9.43359052750588"><ele>278.0</ele><time>2026-03-29T10:15:19Z</time></trkpt><trkpt lat="44.81724267395131" lon="9.433751004272457"><ele>278.0</ele><time>2026-03-29T10:15:20Z</time></trkpt><trkpt lat="44.81715490546911" lon="9.433888280790784"><ele>278.0</ele><time>2026-03-29T10:15:21Z</time></trkpt><trkpt lat="44.81704765190682" lon="9.433999344317375"><ele>278.0</ele><time>2026-03-29T10:15:22Z</time></trkpt><trkpt lat="44.816954578569295" lon="9.434123466282822"><ele>279.6</ele><time>2026-03-29T10:15:23Z</time></trkpt><trkpt lat="44.816876625260335" lon="9.434222384748036"><ele>281.20000000000005</ele><time>2026-03-29T10:15:24Z</time></trkpt><trkpt lat="44.816844344559904" lon="9.434310487408487"><ele>282.8</ele><time>2026-03-29T10:15:25Z</time></trkpt><trkpt lat="44.81683591071517" lon="9.434425757052686"><ele>284.40000000000003</ele><time>2026-03-29T10:15:26Z</time></trkpt><trkpt lat="44.816862148415716" lon="9.434554115578868"><ele>286.0</ele><time>2026-03-29T10:15:27Z</time></trkpt><trkpt lat="44.81692096827001" lon="9.43468353181498"><ele>286.5</ele><time>2026-03-29T10:15:28Z</time></trkpt><trkpt lat="44.81700954633093" lon="9.434803883206815"><ele>287.0</ele><time>2026-03-29T10:15:29Z</time></trkpt><trkpt lat="44.81710072481362" lon="9.434941712052275"><ele>287.5</ele><time>2026-03-29T10:15:30Z</time></trkpt><trkpt lat="44.817195031033634" lon="9.435088895093783"><ele>288.0</ele><time>2026-03-29T10:15:31Z</time></trkpt><trkpt lat="44.817282639452394" lon="9.43523358223856"><ele>288.0</ele><time>2026-03-29T10:15:32Z</time></trkpt><trkpt lat="44.81737001898358" lon="9.435380692490314"><ele>288.0</ele><time>2026-03-29T10:15:33Z</time></trkpt><trkpt lat="44.81745063357767" lon="9.435515232954723"><ele>288.0</ele><time>2026-03-29T10:15:34Z</time></trkpt><trkpt lat="44.81751622899159" lon="9.435629698587189"><ele>288.0</ele><time>2026-03-29T10:15:35Z</time></trkpt><trkpt lat="44.81758221393591" lon="9.43574177692438"><ele>288.6</ele><time>2026-03-29T10:15:36Z</time></trkpt><trkpt lat="44.817650294372555" lon="9.435845854454133"><ele>289.20000000000005</ele><time>2026-03-29T10:15:37Z</time></trkpt><trkpt lat="44.81771302692739" lon="9.435929469502796"><ele>289.8</ele><time>2026-03-29T10:15:38Z</time></trkpt><trkpt lat="44.81778084163049" lon="9.436005673086736"><ele>290.40000000000003</ele><time>2026-03-29T10:15:39Z</time></trkpt><trkpt lat="44.81786650891912" lon="9.436082597257613"><ele>291.0</ele><time>2026-03-29T10:15:40Z</time></trkpt><trkpt lat="44.81795766213392" lon="9.436145764501703"><ele>291.0</ele><time>2026-03-29T10:15:41Z</time></trkpt><trkpt lat="44.81802826492564" lon="9.436183476142181"><ele>291.0</ele><time>2026-03-29T10:15:42Z</time></trkpt><trkpt lat="44.8181121420254" lon="9.436233261730376"><ele>291.0</ele><time>2026-03-29T10:15:44Z</time></trkpt><trkpt lat="44.818195982066285" lon="9.436303718626025"><ele>291.0</ele><time>2026-03-29T10:15:46Z</time></trkpt><trkpt lat="44.81828548622716" lon="9.436339237998114"><ele>291.0</ele><time>2026-03-29T10:15:48Z</time></trkpt><trkpt lat="44.81845467155065" lon="9.4361161461303"><ele>295.40000000000003</ele><time>2026-03-29T10:15:49Z</time></trkpt><trkpt lat="44.81854506563459" lon="9.43611083428684"><ele>299.8</ele><time>2026-03-29T10:15:50Z</time></trkpt><trkpt lat="44.81862464562681" lon="9.43612934924791"><ele>304.20000000000005</ele><time>2026-03-29T10:15:51Z</time></trkpt><trkpt lat="44.81871732356446" lon="9.436231439893826"><ele>308.6</ele><time>2026-03-29T10:15:53Z</time></trkpt><trkpt lat="44.81877561297363" lon="9.436268711100833"><ele>313.0</ele><time>2026-03-29T10:15:54Z</time></trkpt><trkpt lat="44.81891177514543" lon="9.436318747703636"><ele>313.0</ele><time>2026-03-29T10:15:56Z</time></trkpt><trkpt lat="44.81900389275311" lon="9.436314440862125"><ele>313.0</ele><time>2026-03-29T10:15:57Z</time></trkpt><trkpt lat="44.81909634502218" lon="9.436299880824784"><ele>313.0</ele><time>2026-03-29T10:15:58Z</time></trkpt><trkpt lat="44.81918963105862" lon="9.436283791945268"><ele>313.0</ele><time>2026-03-29T10:15:59Z</time></trkpt><trkpt lat="44.81930445397285" lon="9.436264877779081"><ele>313.0</ele><time>2026-03-29T10:16:00Z</time></trkpt><trkpt lat="44.81940333564408" lon="9.436262561627066"><ele>317.4</ele><time>2026-03-29T10:16:01Z</time></trkpt><trkpt lat="44.81949354069612" lon="9.436299321691914"><ele>321.8</ele><time>2026-03-29T10:16:02Z</time></trkpt><trkpt lat="44.81958790361968" lon="9.436363591492444"><ele>326.2</ele><time>2026-03-29T10:16:03Z</time></trkpt><trkpt lat="44.81964892635577" lon="9.436411687303073"><ele>330.6</ele><time>2026-03-29T10:16:04Z</time></trkpt><trkpt lat="44.81979533808114" lon="9.436386954323474"><ele>335.0</ele><time>2026-03-29T10:16:06Z</time></trkpt><trkpt lat="44.81988153750212" lon="9.43638261711503"><ele>335.33333333333337</ele><time>2026-03-29T10:16:07Z</time></trkpt><trkpt lat="44.819966297991314" lon="9.43638757530251"><ele>335.6666666666667</ele><time>2026-03-29T10:16:08Z</time></trkpt><trkpt lat="44.820042143719284" lon="9.43637021769532"><ele>336.0</ele><time>2026-03-29T10:16:09Z</time></trkpt><trkpt lat="44.8201373956453" lon="9.43634036283045"><ele>336.3333333333333</ele><time>2026-03-29T10:16:10Z</time></trkpt><trkpt lat="44.820213420718936" lon="9.436376786805493"><ele>336.66666666666663</ele><time>2026-03-29T10:16:11Z</time></trkpt><trkpt lat="44.820293380605115" lon="9.436441866198646"><ele>337.0</ele><time>2026-03-29T10:16:11.999Z</time></trkpt><trkpt lat="44.82039746561164" lon="9.436475901291333"><ele>340.0</ele><time>2026-03-29T10:16:12.999Z</time></trkpt><trkpt lat="44.8204805624819" lon="9.43651243545368"><ele>343.0</ele><time>2026-03-29T10:16:13.999Z</time></trkpt><trkpt lat="44.82056493521319" lon="9.436560810732265"><ele>346.0</ele><time>2026-03-29T10:16:14.999Z</time></trkpt><trkpt lat="44.82065091170172" lon="9.436577046370468"><ele>349.0</ele><time>2026-03-29T10:16:15.999Z</time></trkpt><trkpt lat="44.820737861547656" lon="9.436563770200177"><ele>352.0</ele><time>2026-03-29T10:16:16.999Z</time></trkpt><trkpt lat="44.820812188807636" lon="9.436559644417981"><ele>355.0</ele><time>2026-03-29T10:16:17.999Z</time></trkpt><trkpt lat="44.82087685572518" lon="9.436575070636584"><ele>355.0</ele><time>2026-03-29T10:16:18.999Z</time></trkpt><trkpt lat="44.82095769192603" lon="9.43659635565532"><ele>355.0</ele><time>2026-03-29T10:16:19.999Z</time></trkpt><trkpt lat="44.82106780477581" lon="9.436636919736761"><ele>355.0</ele><time>2026-03-29T10:16:20.999Z</time></trkpt><trkpt lat="44.82117277656627" lon="9.436671687913197"><ele>355.0</ele><time>2026-03-29T10:16:21.999Z</time></trkpt><trkpt lat="44.821265548019824" lon="9.436697059598497"><ele>355.0</ele><time>2026-03-29T10:16:22.999Z</time></trkpt><trkpt lat="44.82134518731082" lon="9.436718029384567"><ele>357.66666666666663</ele><time>2026-03-29T10:16:23.999Z</time></trkpt><trkpt lat="44.821438941539576" lon="9.436749687297226"><ele>360.3333333333333</ele><time>2026-03-29T10:16:24.999Z</time></trkpt><trkpt lat="44.82152059583172" lon="9.436783411356643"><ele>363.0</ele><time>2026-03-29T10:16:25.999Z</time></trkpt><trkpt lat="44.82160574303801" lon="9.436816879709221"><ele>365.6666666666667</ele><time>2026-03-29T10:16:26.999Z</time></trkpt><trkpt lat="44.8216978032584" lon="9.436863322558922"><ele>368.33333333333337</ele><time>2026-03-29T10:16:27.999Z</time></trkpt><trkpt lat="44.82174917283933" lon="9.43691787361075"><ele>371.0</ele><time>2026-03-29T10:16:28.999Z</time></trkpt><trkpt lat="44.82177643986051" lon="9.437012147293345"><ele>371.6</ele><time>2026-03-29T10:16:29.999Z</time></trkpt><trkpt lat="44.82179252815661" lon="9.437140214238266"><ele>372.20000000000005</ele><time>2026-03-29T10:16:30.999Z</time></trkpt><trkpt lat="44.82178717172874" lon="9.437277091105305"><ele>372.79999999999995</ele><time>2026-03-29T10:16:31.999Z</time></trkpt><trkpt lat="44.821778387607665" lon="9.43743554576557"><ele>373.4</ele><time>2026-03-29T10:16:32.999Z</time></trkpt><trkpt lat="44.8217692140932" lon="9.437605761397043"><ele>374.0</ele><time>2026-03-29T10:16:33.999Z</time></trkpt><trkpt lat="44.82176501671566" lon="9.437771101129378"><ele>374.0</ele><time>2026-03-29T10:16:34.999Z</time></trkpt><trkpt lat="44.82178347353632" lon="9.437932683353678"><ele>374.0</ele><time>2026-03-29T10:16:35.999Z</time></trkpt><trkpt lat="44.82181526630996" lon="9.438107333563538"><ele>374.0</ele><time>2026-03-29T10:16:36.999Z</time></trkpt><trkpt lat="44.821843557330084" lon="9.438259167590148"><ele>374.0</ele><time>2026-03-29T10:16:37.999Z</time></trkpt><trkpt lat="44.82187394262093" lon="9.43835482536747"><ele>374.0</ele><time>2026-03-29T10:16:38.999Z</time></trkpt><trkpt lat="44.82199232757741" lon="9.438309953256475"><ele>376.6</ele><time>2026-03-29T10:16:41.999Z</time></trkpt><trkpt lat="44.82205720167701" lon="9.438222915046826"><ele>379.2</ele><time>2026-03-29T10:16:42.999Z</time></trkpt><trkpt lat="44.822124455384596" lon="9.438109137196701"><ele>381.8</ele><time>2026-03-29T10:16:43.999Z</time></trkpt><trkpt lat="44.82221292757577" lon="9.438008698119488"><ele>384.40000000000003</ele><time>2026-03-29T10:16:44.999Z</time></trkpt><trkpt lat="44.82232801679152" lon="9.437990730336992"><ele>387.0</ele><time>2026-03-29T10:16:45.999Z</time></trkpt><trkpt lat="44.82243844460997" lon="9.437917633221927"><ele>388.20000000000005</ele><time>2026-03-29T10:16:46.999Z</time></trkpt><trkpt lat="44.822533493636925" lon="9.437827858520954"><ele>389.4</ele><time>2026-03-29T10:16:47.999Z</time></trkpt><trkpt lat="44.82264106053259" lon="9.437760604662706"><ele>390.6</ele><time>2026-03-29T10:16:48.999Z</time></trkpt><trkpt lat="44.82270936102737" lon="9.437713349498095"><ele>391.79999999999995</ele><time>2026-03-29T10:16:49.999Z</time></trkpt><trkpt lat="44.82275116792573" lon="9.43754330444749"><ele>393.0</ele><time>2026-03-29T10:16:51.999Z</time></trkpt><trkpt lat="44.82284130931574" lon="9.437488782065737"><ele>395.3333333333333</ele><time>2026-03-29T10:16:53.999Z</time></trkpt><trkpt lat="44.822918861734045" lon="9.43753940469015"><ele>397.66666666666663</ele><time>2026-03-29T10:16:54.999Z</time></trkpt><trkpt lat="44.822999092150404" lon="9.437519702165096"><ele>400.0</ele><time>2026-03-29T10:16:55.999Z</time></trkpt><trkpt lat="44.823068596103795" lon="9.437535036004896"><ele>402.3333333333333</ele><time>2026-03-29T10:16:56.999Z</time></trkpt><trkpt lat="44.823139724047984" lon="9.437502672149844"><ele>404.66666666666663</ele><time>2026-03-29T10:16:57.999Z</time></trkpt><trkpt lat="44.82319872268893" lon="9.437457106640322"><ele>407.0</ele><time>2026-03-29T10:16:58.999Z</time></trkpt><trkpt lat="44.8232435638392" lon="9.437302423664427"><ele>407.0</ele><time>2026-03-29T10:17:00.999Z</time></trkpt><trkpt lat="44.823261122801604" lon="9.437162786881379"><ele>407.0</ele><time>2026-03-29T10:17:01.999Z</time></trkpt><trkpt lat="44.82330323763735" lon="9.437008063836453"><ele>407.0</ele><time>2026-03-29T10:17:02.999Z</time></trkpt><trkpt lat="44.82336999236916" lon="9.436850206334073"><ele>407.0</ele><time>2026-03-29T10:17:03.999Z</time></trkpt><trkpt lat="44.82344216531657" lon="9.4366880851422"><ele>412.5</ele><time>2026-03-29T10:17:04.999Z</time></trkpt><trkpt lat="44.823513013362906" lon="9.436531470995849"><ele>418.0</ele><time>2026-03-29T10:17:05.999Z</time></trkpt><trkpt lat="44.82356613131709" lon="9.436368028857125"><ele>423.5</ele><time>2026-03-29T10:17:06.999Z</time></trkpt><trkpt lat="44.82360346906552" lon="9.436200068313632"><ele>429.0</ele><time>2026-03-29T10:17:07.999Z</time></trkpt><trkpt lat="44.82361935622677" lon="9.436026698107323"><ele>429.5</ele><time>2026-03-29T10:17:08.999Z</time></trkpt><trkpt lat="44.82361880345875" lon="9.435836089492447"><ele>430.0</ele><time>2026-03-29T10:17:09.999Z</time></trkpt><trkpt lat="44.823620706608196" lon="9.435643219061246"><ele>430.5</ele><time>2026-03-29T10:17:10.999Z</time></trkpt><trkpt lat="44.82363043725962" lon="9.435452373382219"><ele>431.0</ele><time>2026-03-29T10:17:11.999Z</time></trkpt><trkpt lat="44.82365443235433" lon="9.435254424080739"><ele>431.0</ele><time>2026-03-29T10:17:12.999Z</time></trkpt><trkpt lat="44.82369779717608" lon="9.435067170978131"><ele>431.0</ele><time>2026-03-29T10:17:13.999Z</time></trkpt><trkpt lat="44.823739377426286" lon="9.434878829821516"><ele>431.0</ele><time>2026-03-29T10:17:14.999Z</time></trkpt><trkpt lat="44.82378015708476" lon="9.43469391135629"><ele>431.0</ele><time>2026-03-29T10:17:15.999Z</time></trkpt><trkpt lat="44.82382309621742" lon="9.434519742640951"><ele>430.75</ele><time>2026-03-29T10:17:16.999Z</time></trkpt><trkpt lat="44.82386876642366" lon="9.434350713933515"><ele>430.5</ele><time>2026-03-29T10:17:17.999Z</time></trkpt><trkpt lat="44.823921874820925" lon="9.434175252760287"><ele>430.25</ele><time>2026-03-29T10:17:18.999Z</time></trkpt><trkpt lat="44.82397220020498" lon="9.434034490216202"><ele>430.0</ele><time>2026-03-29T10:17:19.999Z</time></trkpt><trkpt lat="44.82400647270529" lon="9.433916838707978"><ele>430.0</ele><time>2026-03-29T10:17:20.999Z</time></trkpt><trkpt lat="44.8240408545975" lon="9.433825535156235"><ele>430.0</ele><time>2026-03-29T10:17:21.999Z</time></trkpt><trkpt lat="44.824131183056956" lon="9.433722083853063"><ele>430.0</ele><time>2026-03-29T10:17:23.999Z</time></trkpt><trkpt lat="44.82420923295132" lon="9.433774731637508"><ele>430.0</ele><time>2026-03-29T10:17:25.999Z</time></trkpt><trkpt lat="44.824129778494196" lon="9.434040727068089"><ele>430.0</ele><time>2026-03-29T10:17:27.999Z</time></trkpt><trkpt lat="44.824082485950534" lon="9.434183094608171"><ele>430.0</ele><time>2026-03-29T10:17:28.999Z</time></trkpt><trkpt lat="44.82409360640821" lon="9.434351496242758"><ele>430.0</ele><time>2026-03-29T10:17:29.999Z</time></trkpt><trkpt lat="44.824115778108634" lon="9.43453922150971"><ele>430.0</ele><time>2026-03-29T10:17:30.999Z</time></trkpt><trkpt lat="44.824141544029644" lon="9.434747545371897"><ele>430.25</ele><time>2026-03-29T10:17:31.999Z</time></trkpt><trkpt lat="44.82418345938581" lon="9.435002493431002"><ele>430.5</ele><time>2026-03-29T10:17:33.999Z</time></trkpt><trkpt lat="44.82422534826945" lon="9.435180655323396"><ele>430.75</ele><time>2026-03-29T10:17:34.999Z</time></trkpt><trkpt lat="44.82426058666694" lon="9.435337594977813"><ele>431.0</ele><time>2026-03-29T10:17:35.999Z</time></trkpt><trkpt lat="44.824298614464404" lon="9.435499593782003"><ele>435.0</ele><time>2026-03-29T10:17:36.999Z</time></trkpt><trkpt lat="44.824338653031624" lon="9.43566018318269"><ele>439.0</ele><time>2026-03-29T10:17:37.999Z</time></trkpt><trkpt lat="44.824378495285494" lon="9.435816855252574"><ele>443.0</ele><time>2026-03-29T10:17:38.999Z</time></trkpt><trkpt lat="44.82442082340558" lon="9.43597754912083"><ele>447.0</ele><time>2026-03-29T10:17:39.999Z</time></trkpt><trkpt lat="44.82446120579558" lon="9.436129773120737"><ele>447.0</ele><time>2026-03-29T10:17:40.999Z</time></trkpt><trkpt lat="44.824494124466355" lon="9.436254382436019"><ele>447.00000000000006</ele><time>2026-03-29T10:17:41.999Z</time></trkpt><trkpt lat="44.824522783194325" lon="9.436367594926551"><ele>447.00000000000006</ele><time>2026-03-29T10:17:43Z</time></trkpt><trkpt lat="44.82456079629821" lon="9.436506564269571"><ele>447.0</ele><time>2026-03-29T10:17:44Z</time></trkpt><trkpt lat="44.82460794860325" lon="9.4366656314877"><ele>447.0</ele><time>2026-03-29T10:17:45Z</time></trkpt><trkpt lat="44.82468866091763" lon="9.436820906440246"><ele>445.75</ele><time>2026-03-29T10:17:46Z</time></trkpt><trkpt lat="44.82478493525853" lon="9.436954788111734"><ele>444.5</ele><time>2026-03-29T10:17:47Z</time></trkpt><trkpt lat="44.82490769659566" lon="9.437045698406367"><ele>443.25</ele><time>2026-03-29T10:17:48Z</time></trkpt><trkpt lat="44.825037602304874" lon="9.437129408085953"><ele>442.0</ele><time>2026-03-29T10:17:49Z</time></trkpt><trkpt lat="44.825172472045544" lon="9.437186232467171"><ele>444.5</ele><time>2026-03-29T10:17:50Z</time></trkpt><trkpt lat="44.825309379207155" lon="9.437267746409477"><ele>447.0</ele><time>2026-03-29T10:17:51Z</time></trkpt><trkpt lat="44.825445662386336" lon="9.4373288531018"><ele>449.5</ele><time>2026-03-29T10:17:52Z</time></trkpt><trkpt lat="44.82556448052593" lon="9.437409383035353"><ele>452.0</ele><time>2026-03-29T10:17:53Z</time></trkpt><trkpt lat="44.82564456106715" lon="9.43755318319876"><ele>452.0</ele><time>2026-03-29T10:17:54Z</time></trkpt><trkpt lat="44.82571893112044" lon="9.437666737425689"><ele>452.0</ele><time>2026-03-29T10:17:55Z</time></trkpt><trkpt lat="44.82578755673293" lon="9.437790824595947"><ele>452.0</ele><time>2026-03-29T10:17:56Z</time></trkpt><trkpt lat="44.825882660791294" lon="9.437899520535977"><ele>452.0</ele><time>2026-03-29T10:17:57Z</time></trkpt><trkpt lat="44.82600388845243" lon="9.437981488994959"><ele>453.25</ele><time>2026-03-29T10:17:58Z</time></trkpt><trkpt lat="44.82613932142805" lon="9.43804280402115"><ele>454.5</ele><time>2026-03-29T10:17:59Z</time></trkpt><trkpt lat="44.82627474287319" lon="9.438124217415199"><ele>455.75</ele><time>2026-03-29T10:18:00Z</time></trkpt><trkpt lat="44.82639325247178" lon="9.438207608691162"><ele>457.0</ele><time>2026-03-29T10:18:01Z</time></trkpt><trkpt lat="44.82647751942177" lon="9.438334909482691"><ele>457.0</ele><time>2026-03-29T10:18:02Z</time></trkpt><trkpt lat="44.82654079738476" lon="9.438481677349571"><ele>457.0</ele><time>2026-03-29T10:18:03Z</time></trkpt><trkpt lat="44.82662643462641" lon="9.438632381807412"><ele>457.0</ele><time>2026-03-29T10:18:04Z</time></trkpt><trkpt lat="44.826699862977584" lon="9.438799123126403"><ele>457.0</ele><time>2026-03-29T10:18:05Z</time></trkpt><trkpt lat="44.82677018638709" lon="9.438962106624109"><ele>460.0</ele><time>2026-03-29T10:18:06Z</time></trkpt><trkpt lat="44.82684005605571" lon="9.439133134091698"><ele>463.0</ele><time>2026-03-29T10:18:07Z</time></trkpt><trkpt lat="44.82690901227689" lon="9.43930473254028"><ele>466.0</ele><time>2026-03-29T10:18:08Z</time></trkpt><trkpt lat="44.82697129031459" lon="9.439481254604265"><ele>469.0</ele><time>2026-03-29T10:18:09Z</time></trkpt><trkpt lat="44.82702865925596" lon="9.439666220443444"><ele>469.0</ele><time>2026-03-29T10:18:10Z</time></trkpt><trkpt lat="44.827075862959845" lon="9.439861992774619"><ele>469.0</ele><time>2026-03-29T10:18:11Z</time></trkpt><trkpt lat="44.82711329680068" lon="9.440062705326588"><ele>469.0</ele><time>2026-03-29T10:18:11.999Z</time></trkpt><trkpt lat="44.827146189816865" lon="9.44024994178896"><ele>469.0</ele><time>2026-03-29T10:18:12.999Z</time></trkpt><trkpt lat="44.827170506317145" lon="9.440409429378262"><ele>467.0</ele><time>2026-03-29T10:18:13.999Z</time></trkpt><trkpt lat="44.82720393926905" lon="9.440540609364696"><ele>465.0</ele><time>2026-03-29T10:18:14.999Z</time></trkpt><trkpt lat="44.82724914794539" lon="9.440637226152287"><ele>463.0</ele><time>2026-03-29T10:18:15.999Z</time></trkpt><trkpt lat="44.8273239476704" lon="9.440707211586027"><ele>461.0</ele><time>2026-03-29T10:18:16.999Z</time></trkpt><trkpt lat="44.82741073474779" lon="9.4407303937964"><ele>459.0</ele><time>2026-03-29T10:18:17.999Z</time></trkpt><trkpt lat="44.827498044504544" lon="9.440688288695243"><ele>459.0</ele><time>2026-03-29T10:18:18.999Z</time></trkpt><trkpt lat="44.827571137898346" lon="9.440588968940974"><ele>459.0</ele><time>2026-03-29T10:18:19.999Z</time></trkpt><trkpt lat="44.827600344877915" lon="9.440456648511756"><ele>459.0</ele><time>2026-03-29T10:18:20.999Z</time></trkpt><trkpt lat="44.827587995925505" lon="9.440303028871712"><ele>459.0</ele><time>2026-03-29T10:18:21.999Z</time></trkpt><trkpt lat="44.82755913983386" lon="9.440126081919168"><ele>459.0</ele><time>2026-03-29T10:18:22.999Z</time></trkpt><trkpt lat="44.8275470521125" lon="9.439931231176704"><ele>462.33333333333337</ele><time>2026-03-29T10:18:23.999Z</time></trkpt><trkpt lat="44.82752230562685" lon="9.439731842048802"><ele>465.6666666666667</ele><time>2026-03-29T10:18:24.999Z</time></trkpt><trkpt lat="44.82750602899888" lon="9.439515255744166"><ele>469.0</ele><time>2026-03-29T10:18:25.999Z</time></trkpt><trkpt lat="44.82748474252159" lon="9.439295570775998"><ele>470.75</ele><time>2026-03-29T10:18:26.999Z</time></trkpt><trkpt lat="44.82745328988235" lon="9.439077748811757"><ele>472.5</ele><time>2026-03-29T10:18:27.999Z</time></trkpt><trkpt lat="44.827432336118434" lon="9.438867476136416"><ele>474.25</ele><time>2026-03-29T10:18:28.999Z</time></trkpt><trkpt lat="44.82742550820128" lon="9.438683208735487"><ele>476.0</ele><time>2026-03-29T10:18:29.999Z</time></trkpt><trkpt lat="44.8274411769557" lon="9.438498733374315"><ele>476.75</ele><time>2026-03-29T10:18:30.999Z</time></trkpt><trkpt lat="44.827504886158366" lon="9.438322931466525"><ele>477.5</ele><time>2026-03-29T10:18:31.999Z</time></trkpt><trkpt lat="44.82754470020595" lon="9.438139701529964"><ele>478.25</ele><time>2026-03-29T10:18:32.999Z</time></trkpt><trkpt lat="44.827557737618676" lon="9.43793936350674"><ele>479.0</ele><time>2026-03-29T10:18:33.999Z</time></trkpt><trkpt lat="44.82752350817468" lon="9.43774031514807"><ele>480.0</ele><time>2026-03-29T10:18:34.999Z</time></trkpt><trkpt lat="44.82747832132709" lon="9.437537510753813"><ele>481.0</ele><time>2026-03-29T10:18:35.999Z</time></trkpt><trkpt lat="44.82741967491043" lon="9.437348220462777"><ele>482.0</ele><time>2026-03-29T10:18:36.999Z</time></trkpt><trkpt lat="44.827366940168496" lon="9.437139323342036"><ele>485.3333333333333</ele><time>2026-03-29T10:18:37.999Z</time></trkpt><trkpt lat="44.82731583695573" lon="9.436931425905328"><ele>488.66666666666663</ele><time>2026-03-29T10:18:38.999Z</time></trkpt><trkpt lat="44.827271699817146" lon="9.43672024286552"><ele>492.0</ele><time>2026-03-29T10:18:39.999Z</time></trkpt><trkpt lat="44.82723714375555" lon="9.436516505447004"><ele>492.0</ele><time>2026-03-29T10:18:40.999Z</time></trkpt><trkpt lat="44.82721451081352" lon="9.436304945408606"><ele>492.0</ele><time>2026-03-29T10:18:41.999Z</time></trkpt><trkpt lat="44.827215545365" lon="9.436107628518947"><ele>492.0</ele><time>2026-03-29T10:18:42.999Z</time></trkpt><trkpt lat="44.827208926003074" lon="9.435923342259484"><ele>492.0</ele><time>2026-03-29T10:18:43.999Z</time></trkpt><trkpt lat="44.82721365114348" lon="9.435751343546624"><ele>493.20000000000005</ele><time>2026-03-29T10:18:44.999Z</time></trkpt><trkpt lat="44.827213084984514" lon="9.435610498183127"><ele>494.40000000000003</ele><time>2026-03-29T10:18:45.999Z</time></trkpt><trkpt lat="44.827215799347755" lon="9.435471155836925"><ele>495.59999999999997</ele><time>2026-03-29T10:18:46.999Z</time></trkpt><trkpt lat="44.82721759939931" lon="9.435324869997052"><ele>496.79999999999995</ele><time>2026-03-29T10:18:47.999Z</time></trkpt><trkpt lat="44.827221384923504" lon="9.43519450995371"><ele>498.0</ele><time>2026-03-29T10:18:48.999Z</time></trkpt><trkpt lat="44.827224191347355" lon="9.435042999564244"><ele>498.2</ele><time>2026-03-29T10:18:49.999Z</time></trkpt><trkpt lat="44.8272234015168" lon="9.434902491514798"><ele>498.4</ele><time>2026-03-29T10:18:50.999Z</time></trkpt><trkpt lat="44.82722628407986" lon="9.434785824059363"><ele>498.59999999999997</ele><time>2026-03-29T10:18:51.999Z</time></trkpt><trkpt lat="44.827278273404644" lon="9.434682684268758"><ele>498.79999999999995</ele><time>2026-03-29T10:18:53.999Z</time></trkpt><trkpt lat="44.827380447936875" lon="9.434614394839533"><ele>499.0</ele><time>2026-03-29T10:18:55.999Z</time></trkpt><trkpt lat="44.82751015965031" lon="9.434595486096287"><ele>498.00000000000006</ele><time>2026-03-29T10:18:57.999Z</time></trkpt><trkpt lat="44.82758203510147" lon="9.43459328986224"><ele>497.0</ele><time>2026-03-29T10:18:58.999Z</time></trkpt><trkpt lat="44.82765011387848" lon="9.434593815400547"><ele>496.0</ele><time>2026-03-29T10:18:59.999Z</time></trkpt><trkpt lat="44.8277525092824" lon="9.434594605871709"><ele>495.0</ele><time>2026-03-29T10:19:00.999Z</time></trkpt><trkpt lat="44.8278249461363" lon="9.43459288072253"><ele>494.00000000000006</ele><time>2026-03-29T10:19:01.999Z</time></trkpt><trkpt lat="44.82790539513339" lon="9.434591056991257"><ele>493.0</ele><time>2026-03-29T10:19:02.999Z</time></trkpt><trkpt lat="44.828009525964966" lon="9.434588696406228"><ele>493.0</ele><time>2026-03-29T10:19:03.999Z</time></trkpt><trkpt lat="44.82807487770662" lon="9.43458721491231"><ele>492.99999999999994</ele><time>2026-03-29T10:19:04.999Z</time></trkpt><trkpt lat="44.82814444195314" lon="9.434585909224468"><ele>492.99999999999994</ele><time>2026-03-29T10:19:05.999Z</time></trkpt><trkpt lat="44.82823020722161" lon="9.434597173229522"><ele>493.0</ele><time>2026-03-29T10:19:07.999Z</time></trkpt><trkpt lat="44.8283287112514" lon="9.434631604021943"><ele>493.0</ele><time>2026-03-29T10:19:09.999Z</time></trkpt><trkpt lat="44.8283954711669" lon="9.43532256002532"><ele>498.25</ele><time>2026-03-29T10:19:10.999Z</time></trkpt><trkpt lat="44.82842308437215" lon="9.435489091660566"><ele>503.5</ele><time>2026-03-29T10:19:11.999Z</time></trkpt><trkpt lat="44.82846811587662" lon="9.435614642834572"><ele>508.75</ele><time>2026-03-29T10:19:12.999Z</time></trkpt><trkpt lat="44.828514519048525" lon="9.435762268220522"><ele>514.0</ele><time>2026-03-29T10:19:13.999Z</time></trkpt><trkpt lat="44.82857848344607" lon="9.4359141413078"><ele>516.6</ele><time>2026-03-29T10:19:14.999Z</time></trkpt><trkpt lat="44.828652665818666" lon="9.436033444206092"><ele>519.2</ele><time>2026-03-29T10:19:15.999Z</time></trkpt><trkpt lat="44.82874047176964" lon="9.436114197934055"><ele>521.8000000000001</ele><time>2026-03-29T10:19:16.999Z</time></trkpt><trkpt lat="44.828827789102604" lon="9.436150810398466"><ele>524.4</ele><time>2026-03-29T10:19:17.999Z</time></trkpt><trkpt lat="44.82893799884598" lon="9.436155157587232"><ele>527.0</ele><time>2026-03-29T10:19:18.999Z</time></trkpt><trkpt lat="44.82905040594698" lon="9.436163727298148"><ele>527.0</ele><time>2026-03-29T10:19:19.999Z</time></trkpt><trkpt lat="44.829152180186476" lon="9.43617114698733"><ele>527.0</ele><time>2026-03-29T10:19:20.999Z</time></trkpt><trkpt lat="44.829256493111" lon="9.43619850987672"><ele>527.0</ele><time>2026-03-29T10:19:21.999Z</time></trkpt><trkpt lat="44.829344483148226" lon="9.436232771432799"><ele>527.0</ele><time>2026-03-29T10:19:22.999Z</time></trkpt><trkpt lat="44.82940644264292" lon="9.436264019249597"><ele>527.0</ele><time>2026-03-29T10:19:23.999Z</time></trkpt><trkpt lat="44.82946922579831" lon="9.43623481469649"><ele>527.0</ele><time>2026-03-29T10:19:24.999Z</time></trkpt><trkpt lat="44.82953987870146" lon="9.436164325531541"><ele>530.2</ele><time>2026-03-29T10:19:25.999Z</time></trkpt><trkpt lat="44.82961970324298" lon="9.436080014370244"><ele>533.4000000000001</ele><time>2026-03-29T10:19:26.999Z</time></trkpt><trkpt lat="44.829675205360886" lon="9.436010612076338"><ele>536.5999999999999</ele><time>2026-03-29T10:19:27.999Z</time></trkpt><trkpt lat="44.829751994889975" lon="9.4359654374337"><ele>539.8</ele><time>2026-03-29T10:19:28.999Z</time></trkpt><trkpt lat="44.82985406382426" lon="9.43594870557171"><ele>543.0</ele><time>2026-03-29T10:19:29.999Z</time></trkpt><trkpt lat="44.82995095928304" lon="9.435950686897353"><ele>543.0</ele><time>2026-03-29T10:19:30.999Z</time></trkpt><trkpt lat="44.83004439888836" lon="9.435963971449645"><ele>543.0</ele><time>2026-03-29T10:19:31.999Z</time></trkpt><trkpt lat="44.83014653717228" lon="9.435991369585746"><ele>543.0</ele><time>2026-03-29T10:19:32.999Z</time></trkpt><trkpt lat="44.83023101461131" lon="9.436031951464157"><ele>543.0</ele><time>2026-03-29T10:19:33.999Z</time></trkpt><trkpt lat="44.83034201471367" lon="9.436079795188313"><ele>543.0</ele><time>2026-03-29T10:19:34.999Z</time></trkpt><trkpt lat="44.8304381890028" lon="9.436114051279406"><ele>546.1999999999999</ele><time>2026-03-29T10:19:35.999Z</time></trkpt><trkpt lat="44.83051463788341" lon="9.436145708384151"><ele>549.4</ele><time>2026-03-29T10:19:36.999Z</time></trkpt><trkpt lat="44.830570500265104" lon="9.436297991141604"><ele>552.5999999999999</ele><time>2026-03-29T10:19:38.999Z</time></trkpt><trkpt lat="44.83061497278969" lon="9.436364173578811"><ele>555.8</ele><time>2026-03-29T10:19:40.999Z</time></trkpt><trkpt lat="44.83072311947629" lon="9.436307643769087"><ele>559.0</ele><time>2026-03-29T10:19:42.999Z</time></trkpt><trkpt lat="44.83081298260798" lon="9.436289799693608"><ele>559.0</ele><time>2026-03-29T10:19:43.999Z</time></trkpt><trkpt lat="44.830910807890675" lon="9.436292663481929"><ele>559.0</ele><time>2026-03-29T10:19:44.999Z</time></trkpt><trkpt lat="44.830986504323384" lon="9.436312803616987"><ele>559.0</ele><time>2026-03-29T10:19:45.999Z</time></trkpt><trkpt lat="44.831061191738954" lon="9.436308141146153"><ele>559.0</ele><time>2026-03-29T10:19:46.999Z</time></trkpt><trkpt lat="44.83112184333541" lon="9.43622314036256"><ele>559.0</ele><time>2026-03-29T10:19:48.999Z</time></trkpt><trkpt lat="44.83115452784068" lon="9.436090716487673"><ele>559.0</ele><time>2026-03-29T10:19:51Z</time></trkpt><trkpt lat="44.83118432437402" lon="9.435999699858732"><ele>562.4</ele><time>2026-03-29T10:19:53Z</time></trkpt><trkpt lat="44.83129491486029" lon="9.436012066274467"><ele>565.8</ele><time>2026-03-29T10:19:55Z</time></trkpt><trkpt lat="44.8313837769398" lon="9.436063410927783"><ele>569.2</ele><time>2026-03-29T10:19:56Z</time></trkpt><trkpt lat="44.83147017252088" lon="9.436124772962096"><ele>572.6</ele><time>2026-03-29T10:19:57Z</time></trkpt><trkpt lat="44.83155484207597" lon="9.436185359595102"><ele>576.0</ele><time>2026-03-29T10:19:58Z</time></trkpt><trkpt lat="44.83161855386864" lon="9.436254867102653"><ele>576.0</ele><time>2026-03-29T10:19:59Z</time></trkpt><trkpt lat="44.831724761745384" lon="9.436231200817812"><ele>576.0</ele><time>2026-03-29T10:20:01Z</time></trkpt><trkpt lat="44.8317892552564" lon="9.436232599029275"><ele>576.0</ele><time>2026-03-29T10:20:02Z</time></trkpt><trkpt lat="44.83185592407874" lon="9.436260498418259"><ele>576.0</ele><time>2026-03-29T10:20:03Z</time></trkpt><trkpt lat="44.83198358634004" lon="9.43626592619703"><ele>576.0</ele><time>2026-03-29T10:20:05Z</time></trkpt><trkpt lat="44.83205626163662" lon="9.436285354000642"><ele>576.0</ele><time>2026-03-29T10:20:06Z</time></trkpt><trkpt lat="44.83213172282698" lon="9.43631685464441"><ele>579.8</ele><time>2026-03-29T10:20:07Z</time></trkpt><trkpt lat="44.83220196618206" lon="9.436323651471652"><ele>583.6</ele><time>2026-03-29T10:20:08Z</time></trkpt><trkpt lat="44.83231242457138" lon="9.436338538151215"><ele>587.4</ele><time>2026-03-29T10:20:10Z</time></trkpt><trkpt lat="44.83243866933805" lon="9.43631182643358"><ele>591.2</ele><time>2026-03-29T10:20:12Z</time></trkpt><trkpt lat="44.832542064362904" lon="9.436322327501609"><ele>595.0</ele><time>2026-03-29T10:20:13Z</time></trkpt><trkpt lat="44.83267430182536" lon="9.436325692124992"><ele>599.5</ele><time>2026-03-29T10:20:14Z</time></trkpt><trkpt lat="44.832804861736605" lon="9.436352099668744"><ele>604.0</ele><time>2026-03-29T10:20:15Z</time></trkpt><trkpt lat="44.83292700980113" lon="9.43638862719504"><ele>608.5</ele><time>2026-03-29T10:20:16Z</time></trkpt><trkpt lat="44.833038280565056" lon="9.436428523010958"><ele>613.0</ele><time>2026-03-29T10:20:17Z</time></trkpt><trkpt lat="44.83314201105488" lon="9.436467774947081"><ele>613.0</ele><time>2026-03-29T10:20:18Z</time></trkpt><trkpt lat="44.83324409788525" lon="9.436507950043106"><ele>613.0</ele><time>2026-03-29T10:20:19Z</time></trkpt><trkpt lat="44.83334142909885" lon="9.43653912862592"><ele>613.0</ele><time>2026-03-29T10:20:20Z</time></trkpt><trkpt lat="44.83341818233567" lon="9.436561699928593"><ele>613.0</ele><time>2026-03-29T10:20:21Z</time></trkpt><trkpt lat="44.833494793331425" lon="9.436592930336426"><ele>613.0</ele><time>2026-03-29T10:20:22Z</time></trkpt><trkpt lat="44.83356652230518" lon="9.43667806803429"><ele>615.75</ele><time>2026-03-29T10:20:24Z</time></trkpt><trkpt lat="44.83352427731114" lon="9.436844925312828"><ele>618.5</ele><time>2026-03-29T10:20:26Z</time></trkpt><trkpt lat="44.833493773842996" lon="9.43697977059142"><ele>621.25</ele><time>2026-03-29T10:20:27Z</time></trkpt><trkpt lat="44.83349926123373" lon="9.437145478841147"><ele>624.0</ele><time>2026-03-29T10:20:28Z</time></trkpt><trkpt lat="44.83355636372364" lon="9.437277518453897"><ele>624.0</ele><time>2026-03-29T10:20:29Z</time></trkpt><trkpt lat="44.833642488251044" lon="9.437392431321928"><ele>624.0</ele><time>2026-03-29T10:20:30Z</time></trkpt><trkpt lat="44.833736839970115" lon="9.437500191684343"><ele>624.0</ele><time>2026-03-29T10:20:31Z</time></trkpt><trkpt lat="44.83382795277478" lon="9.437581838179973"><ele>624.0</ele><time>2026-03-29T10:20:32Z</time></trkpt><trkpt lat="44.833907474179895" lon="9.437653651899323"><ele>624.0</ele><time>2026-03-29T10:20:33Z</time></trkpt><trkpt lat="44.83398977489727" lon="9.437751177574656"><ele>624.0</ele><time>2026-03-29T10:20:34Z</time></trkpt><trkpt lat="44.834081715916604" lon="9.437847934598508"><ele>624.0</ele><time>2026-03-29T10:20:35Z</time></trkpt><trkpt lat="44.83418982635313" lon="9.437943905841179"><ele>624.0</ele><time>2026-03-29T10:20:36Z</time></trkpt><trkpt lat="44.834303568832034" lon="9.438032556608706"><ele>624.0</ele><time>2026-03-29T10:20:37Z</time></trkpt><trkpt lat="44.83442762097532" lon="9.43811106125163"><ele>627.0</ele><time>2026-03-29T10:20:38Z</time></trkpt><trkpt lat="44.83453363753335" lon="9.438233135851684"><ele>630.0</ele><time>2026-03-29T10:20:38.999Z</time></trkpt><trkpt lat="44.83457571594953" lon="9.438397796581668"><ele>633.0</ele><time>2026-03-29T10:20:39.999Z</time></trkpt><trkpt lat="44.83467379281954" lon="9.43854083935623"><ele>636.0</ele><time>2026-03-29T10:20:40.999Z</time></trkpt><trkpt lat="44.83476752808975" lon="9.438688184993635"><ele>634.25</ele><time>2026-03-29T10:20:41.999Z</time></trkpt><trkpt lat="44.83487457478811" lon="9.438820970516401"><ele>632.5</ele><time>2026-03-29T10:20:42.999Z</time></trkpt><trkpt lat="44.83498372164304" lon="9.438955812040923"><ele>630.75</ele><time>2026-03-29T10:20:43.999Z</time></trkpt><trkpt lat="44.83508772965736" lon="9.439085345585607"><ele>629.0</ele><time>2026-03-29T10:20:44.999Z</time></trkpt><trkpt lat="44.83517349686693" lon="9.439206691730929"><ele>633.75</ele><time>2026-03-29T10:20:45.999Z</time></trkpt><trkpt lat="44.83525861969921" lon="9.439337398002962"><ele>638.5</ele><time>2026-03-29T10:20:46.999Z</time></trkpt><trkpt lat="44.83533968652449" lon="9.439469674733813"><ele>643.25</ele><time>2026-03-29T10:20:47.999Z</time></trkpt><trkpt lat="44.83540883110291" lon="9.439609318783631"><ele>648.0</ele><time>2026-03-29T10:20:48.999Z</time></trkpt><trkpt lat="44.83543399269225" lon="9.439787212615427"><ele>648.0</ele><time>2026-03-29T10:20:49.999Z</time></trkpt><trkpt lat="44.83545037043608" lon="9.43996356793901"><ele>648.0</ele><time>2026-03-29T10:20:50.999Z</time></trkpt><trkpt lat="44.83548677680793" lon="9.440144482908256"><ele>648.0</ele><time>2026-03-29T10:20:51.999Z</time></trkpt><trkpt lat="44.835516647146754" lon="9.440327642502359"><ele>648.0</ele><time>2026-03-29T10:20:52.999Z</time></trkpt><trkpt lat="44.83556959250694" lon="9.440508939900017"><ele>646.5</ele><time>2026-03-29T10:20:53.999Z</time></trkpt><trkpt lat="44.835642783800274" lon="9.440676890858072"><ele>645.0</ele><time>2026-03-29T10:20:54.999Z</time></trkpt><trkpt lat="44.835730034750014" lon="9.440830929619926"><ele>643.5</ele><time>2026-03-29T10:20:55.999Z</time></trkpt><trkpt lat="44.835804935506445" lon="9.440952046576047"><ele>642.0</ele><time>2026-03-29T10:20:56.999Z</time></trkpt><trkpt lat="44.835863666320144" lon="9.441054762102747"><ele>642.0</ele><time>2026-03-29T10:20:57.999Z</time></trkpt><trkpt lat="44.83590603748758" lon="9.441128833408744"><ele>642.0</ele><time>2026-03-29T10:20:58.999Z</time></trkpt><trkpt lat="44.83596896753529" lon="9.44117263466201"><ele>642.0</ele><time>2026-03-29T10:20:59.999Z</time></trkpt><trkpt lat="44.836059386697265" lon="9.44117853465588"><ele>642.0</ele><time>2026-03-29T10:21:00.999Z</time></trkpt><trkpt lat="44.83615096027417" lon="9.441192119521407"><ele>642.0</ele><time>2026-03-29T10:21:01.999Z</time></trkpt><trkpt lat="44.83626340240429" lon="9.441093984987187"><ele>644.8</ele><time>2026-03-29T10:21:02.999Z</time></trkpt><trkpt lat="44.83636729656745" lon="9.441072675501859"><ele>647.6</ele><time>2026-03-29T10:21:03.999Z</time></trkpt><trkpt lat="44.83646416202356" lon="9.441060021099284"><ele>650.4</ele><time>2026-03-29T10:21:04.999Z</time></trkpt><trkpt lat="44.83656268896508" lon="9.441054046943682"><ele>653.1999999999999</ele><time>2026-03-29T10:21:05.999Z</time></trkpt><trkpt lat="44.836663794116774" lon="9.441064439619923"><ele>656.0</ele><time>2026-03-29T10:21:06.999Z</time></trkpt><trkpt lat="44.83676252901554" lon="9.441093188876819"><ele>658.5999999999999</ele><time>2026-03-29T10:21:07.999Z</time></trkpt><trkpt lat="44.83686622289921" lon="9.441120625578955"><ele>661.2</ele><time>2026-03-29T10:21:08.999Z</time></trkpt><trkpt lat="44.836968268627935" lon="9.441145087907206"><ele>663.8</ele><time>2026-03-29T10:21:09.999Z</time></trkpt><trkpt lat="44.83706917065621" lon="9.441157906783799"><ele>666.4000000000001</ele><time>2026-03-29T10:21:10.999Z</time></trkpt><trkpt lat="44.83718443333931" lon="9.441174092978692"><ele>669.0</ele><time>2026-03-29T10:21:11.999Z</time></trkpt><trkpt lat="44.83729114864225" lon="9.44117885986794"><ele>669.0</ele><time>2026-03-29T10:21:12.999Z</time></trkpt><trkpt lat="44.83737938605577" lon="9.441189365511192"><ele>669.0</ele><time>2026-03-29T10:21:13.999Z</time></trkpt><trkpt lat="44.83747970536859" lon="9.441198239714083"><ele>669.0</ele><time>2026-03-29T10:21:14.999Z</time></trkpt><trkpt lat="44.837562202236164" lon="9.441194852678079"><ele>669.0</ele><time>2026-03-29T10:21:15.999Z</time></trkpt><trkpt lat="44.837638888376155" lon="9.44123795079104"><ele>669.0</ele><time>2026-03-29T10:21:16.999Z</time></trkpt><trkpt lat="44.83770179551748" lon="9.441257195941416"><ele>669.0</ele><time>2026-03-29T10:21:17.999Z</time></trkpt><trkpt lat="44.83777706593026" lon="9.440930474459448"><ele>669.8000000000001</ele><time>2026-03-29T10:21:19.999Z</time></trkpt><trkpt lat="44.83778792721475" lon="9.440810259666101"><ele>670.6</ele><time>2026-03-29T10:21:20.999Z</time></trkpt><trkpt lat="44.83779632132423" lon="9.440671479607717"><ele>671.4</ele><time>2026-03-29T10:21:21.999Z</time></trkpt><trkpt lat="44.83781928554151" lon="9.440519091454027"><ele>672.2</ele><time>2026-03-29T10:21:22.999Z</time></trkpt><trkpt lat="44.83784935679695" lon="9.440359669832537"><ele>673.0</ele><time>2026-03-29T10:21:23.999Z</time></trkpt><trkpt lat="44.83788778099418" lon="9.440198265830256"><ele>676.0</ele><time>2026-03-29T10:21:24.999Z</time></trkpt><trkpt lat="44.83792233503934" lon="9.440035781232048"><ele>679.0</ele><time>2026-03-29T10:21:25.999Z</time></trkpt><trkpt lat="44.83796229100372" lon="9.439881484540447"><ele>682.0</ele><time>2026-03-29T10:21:26.999Z</time></trkpt><trkpt lat="44.83800828985961" lon="9.439724520945292"><ele>685.0</ele><time>2026-03-29T10:21:27.999Z</time></trkpt><trkpt lat="44.83805289586919" lon="9.439570368095998"><ele>687.25</ele><time>2026-03-29T10:21:28.999Z</time></trkpt><trkpt lat="44.838094457508014" lon="9.439421878189911"><ele>689.5</ele><time>2026-03-29T10:21:29.999Z</time></trkpt><trkpt lat="44.838119707275986" lon="9.439276260803805"><ele>691.75</ele><time>2026-03-29T10:21:30.999Z</time></trkpt><trkpt lat="44.838147831273574" lon="9.43911062918808"><ele>694.0</ele><time>2026-03-29T10:21:31.999Z</time></trkpt><trkpt lat="44.83817014962785" lon="9.438952230136652"><ele>696.25</ele><time>2026-03-29T10:21:32.999Z</time></trkpt><trkpt lat="44.838204373106905" lon="9.43877830074323"><ele>698.5</ele><time>2026-03-29T10:21:33.999Z</time></trkpt><trkpt lat="44.83823409204709" lon="9.438616567311398"><ele>700.75</ele><time>2026-03-29T10:21:34.999Z</time></trkpt><trkpt lat="44.83825332236265" lon="9.438466629755165"><ele>703.0</ele><time>2026-03-29T10:21:35.999Z</time></trkpt><trkpt lat="44.838254302619944" lon="9.438298418238684"><ele>703.0</ele><time>2026-03-29T10:21:36.999Z</time></trkpt><trkpt lat="44.838250868126934" lon="9.438111568047812"><ele>703.0</ele><time>2026-03-29T10:21:37.999Z</time></trkpt><trkpt lat="44.838248121461504" lon="9.437929943294705"><ele>703.0</ele><time>2026-03-29T10:21:38.999Z</time></trkpt><trkpt lat="44.838245270404904" lon="9.437785580484096"><ele>703.0</ele><time>2026-03-29T10:21:39.999Z</time></trkpt><trkpt lat="44.83822446707045" lon="9.437650274130624"><ele>706.0</ele><time>2026-03-29T10:21:40.999Z</time></trkpt><trkpt lat="44.83817430483301" lon="9.437525739885608"><ele>709.0</ele><time>2026-03-29T10:21:41.999Z</time></trkpt><trkpt lat="44.83811725852686" lon="9.437406789851998"><ele>712.0</ele><time>2026-03-29T10:21:42.999Z</time></trkpt><trkpt lat="44.838064521400206" lon="9.437271278194919"><ele>715.0</ele><time>2026-03-29T10:21:43.999Z</time></trkpt><trkpt lat="44.838018465975665" lon="9.437149322806752"><ele>718.0</ele><time>2026-03-29T10:21:44.999Z</time></trkpt><trkpt lat="44.83800636362061" lon="9.437030820470637"><ele>720.0</ele><time>2026-03-29T10:21:45.999Z</time></trkpt><trkpt lat="44.83800685451292" lon="9.436906531888576"><ele>722.0</ele><time>2026-03-29T10:21:46.999Z</time></trkpt><trkpt lat="44.838035822875305" lon="9.436762410571465"><ele>724.0</ele><time>2026-03-29T10:21:47.999Z</time></trkpt><trkpt lat="44.838082256299785" lon="9.436644066525366"><ele>726.0</ele><time>2026-03-29T10:21:48.999Z</time></trkpt><trkpt lat="44.83815570833174" lon="9.43653639758234"><ele>728.0</ele><time>2026-03-29T10:21:49.999Z</time></trkpt><trkpt lat="44.83826455545656" lon="9.436454133803045"><ele>728.0</ele><time>2026-03-29T10:21:51Z</time></trkpt><trkpt lat="44.83838580896711" lon="9.436377189227317"><ele>728.0</ele><time>2026-03-29T10:21:52Z</time></trkpt><trkpt lat="44.83850012487402" lon="9.436300284511221"><ele>728.0</ele><time>2026-03-29T10:21:53Z</time></trkpt><trkpt lat="44.83859537299688" lon="9.436213701780522"><ele>728.0</ele><time>2026-03-29T10:21:54Z</time></trkpt><trkpt lat="44.838692040644034" lon="9.436146531766386"><ele>733.5</ele><time>2026-03-29T10:21:55Z</time></trkpt><trkpt lat="44.83878260431179" lon="9.436099025396848"><ele>739.0</ele><time>2026-03-29T10:21:56Z</time></trkpt><trkpt lat="44.83884800222636" lon="9.436074290169513"><ele>744.5</ele><time>2026-03-29T10:21:57Z</time></trkpt><trkpt lat="44.838919238152336" lon="9.436033251060884"><ele>750.0</ele><time>2026-03-29T10:21:58Z</time></trkpt><trkpt lat="44.83899607870311" lon="9.43598497236799"><ele>755.5</ele><time>2026-03-29T10:21:59Z</time></trkpt><trkpt lat="44.83908113555026" lon="9.435940735015013"><ele>761.0</ele><time>2026-03-29T10:22:00Z</time></trkpt><trkpt lat="44.839163452795475" lon="9.435910888849794"><ele>761.0</ele><time>2026-03-29T10:22:01Z</time></trkpt><trkpt lat="44.83926796463299" lon="9.435894040403602"><ele>761.0</ele><time>2026-03-29T10:22:02Z</time></trkpt><trkpt lat="44.839340632891215" lon="9.435868531610739"><ele>761.0</ele><time>2026-03-29T10:22:03Z</time></trkpt><trkpt lat="44.83945449398892" lon="9.435830051202947"><ele>761.0</ele><time>2026-03-29T10:22:05Z</time></trkpt><trkpt lat="44.839529416122325" lon="9.435805385738291"><ele>761.0</ele><time>2026-03-29T10:22:06Z</time></trkpt><trkpt lat="44.839606822582724" lon="9.435761420780775"><ele>763.3333333333333</ele><time>2026-03-29T10:22:07Z</time></trkpt><trkpt lat="44.83971452266622" lon="9.435699727451137"><ele>765.6666666666666</ele><time>2026-03-29T10:22:09Z</time></trkpt><trkpt lat="44.83977167100579" lon="9.435738165431797"><ele>768.0</ele><time>2026-03-29T10:22:10Z</time></trkpt><trkpt lat="44.8398313527243" lon="9.43580439353004"><ele>770.3333333333333</ele><time>2026-03-29T10:22:11Z</time></trkpt><trkpt lat="44.839906365877134" lon="9.435866149915292"><ele>772.6666666666666</ele><time>2026-03-29T10:22:12Z</time></trkpt><trkpt lat="44.83997547321927" lon="9.435858501076615"><ele>775.0</ele><time>2026-03-29T10:22:13Z</time></trkpt><trkpt lat="44.84003321775956" lon="9.43580235115838"><ele>774.9999999999999</ele><time>2026-03-29T10:22:14Z</time></trkpt><trkpt lat="44.84011191107171" lon="9.435719099743762"><ele>775.0</ele><time>2026-03-29T10:22:15Z</time></trkpt><trkpt lat="44.84020151730833" lon="9.435662581906179"><ele>775.0</ele><time>2026-03-29T10:22:16Z</time></trkpt><trkpt lat="44.8402778168326" lon="9.435658735680004"><ele>775.0</ele><time>2026-03-29T10:22:17Z</time></trkpt><trkpt lat="44.84033858107074" lon="9.435722498544955"><ele>774.9999999999999</ele><time>2026-03-29T10:22:18Z</time></trkpt><trkpt lat="44.840399619137955" lon="9.43582869498204"><ele>775.0</ele><time>2026-03-29T10:22:19Z</time></trkpt><trkpt lat="44.8404706226122" lon="9.435934028479348"><ele>776.4999999999999</ele><time>2026-03-29T10:22:20Z</time></trkpt><trkpt lat="44.84054022003277" lon="9.435960364250489"><ele>778.0</ele><time>2026-03-29T10:22:21Z</time></trkpt><trkpt lat="44.84062130344502" lon="9.435941106040334"><ele>779.5</ele><time>2026-03-29T10:22:22Z</time></trkpt><trkpt lat="44.840683365711726" lon="9.435903766036605"><ele>781.0</ele><time>2026-03-29T10:22:23Z</time></trkpt><trkpt lat="44.84075438931491" lon="9.435865741926055"><ele>782.4999999999999</ele><time>2026-03-29T10:22:24Z</time></trkpt><trkpt lat="44.84083624496715" lon="9.435778948363962"><ele>784.0</ele><time>2026-03-29T10:22:25Z</time></trkpt><trkpt lat="44.840917720747704" lon="9.43567548683413"><ele>782.0</ele><time>2026-03-29T10:22:26Z</time></trkpt><trkpt lat="44.84099183115057" lon="9.435584251805052"><ele>780.0</ele><time>2026-03-29T10:22:27Z</time></trkpt><trkpt lat="44.841083949315774" lon="9.435520923384447"><ele>778.0</ele><time>2026-03-29T10:22:28Z</time></trkpt><trkpt lat="44.841148383500816" lon="9.435413566887796"><ele>776.0</ele><time>2026-03-29T10:22:29Z</time></trkpt><trkpt lat="44.84120372290815" lon="9.435322979719963"><ele>774.0</ele><time>2026-03-29T10:22:30Z</time></trkpt><trkpt lat="44.841279875429706" lon="9.43524730807252"><ele>777.3333333333334</ele><time>2026-03-29T10:22:31Z</time></trkpt><trkpt lat="44.84131993356191" lon="9.435154460280998"><ele>780.6666666666667</ele><time>2026-03-29T10:22:32Z</time></trkpt><trkpt lat="44.841378099467214" lon="9.435059824207888"><ele>784.0</ele><time>2026-03-29T10:22:33Z</time></trkpt><trkpt lat="44.841497667304516" lon="9.435040270523997"><ele>787.3333333333334</ele><time>2026-03-29T10:22:35Z</time></trkpt><trkpt lat="44.84157882825226" lon="9.43506295896401"><ele>790.6666666666667</ele><time>2026-03-29T10:22:36Z</time></trkpt><trkpt lat="44.84165786183947" lon="9.435060352747904"><ele>794.0</ele><time>2026-03-29T10:22:37Z</time></trkpt><trkpt lat="44.84174228546569" lon="9.435045782872917"><ele>793.0000000000001</ele><time>2026-03-29T10:22:38Z</time></trkpt><trkpt lat="44.84181652783201" lon="9.435021591685372"><ele>792.0</ele><time>2026-03-29T10:22:39Z</time></trkpt><trkpt lat="44.841905178948046" lon="9.435038365107156"><ele>791.0</ele><time>2026-03-29T10:22:40Z</time></trkpt><trkpt lat="44.8419928114033" lon="9.435070516084387"><ele>790.0</ele><time>2026-03-29T10:22:41Z</time></trkpt><trkpt lat="44.84207019676502" lon="9.435057491468363"><ele>789.0000000000001</ele><time>2026-03-29T10:22:42Z</time></trkpt><trkpt lat="44.842149244386306" lon="9.43503180725007"><ele>788.0</ele><time>2026-03-29T10:22:43Z</time></trkpt><trkpt lat="44.84223871336201" lon="9.435019838539583"><ele>788.0</ele><time>2026-03-29T10:22:44Z</time></trkpt><trkpt lat="44.84239550289967" lon="9.435090059550427"><ele>788.0</ele><time>2026-03-29T10:22:46Z</time></trkpt><trkpt lat="44.84246386607211" lon="9.435114217863397"><ele>788.0</ele><time>2026-03-29T10:22:47Z</time></trkpt><trkpt lat="44.84254787258671" lon="9.435176226315559"><ele>788.0</ele><time>2026-03-29T10:22:49Z</time></trkpt><trkpt lat="44.84261918407684" lon="9.435243323124464"><ele>788.0</ele><time>2026-03-29T10:22:50Z</time></trkpt><trkpt lat="44.8426874215174" lon="9.435250891815778"><ele>788.1666666666667</ele><time>2026-03-29T10:22:51Z</time></trkpt><trkpt lat="44.842766834452995" lon="9.435242719419263"><ele>788.3333333333334</ele><time>2026-03-29T10:22:52Z</time></trkpt><trkpt lat="44.84282406721364" lon="9.435201887907487"><ele>788.5</ele><time>2026-03-29T10:22:53Z</time></trkpt><trkpt lat="44.84289501509133" lon="9.435198647249786"><ele>788.6666666666667</ele><time>2026-03-29T10:22:59Z</time></trkpt><trkpt lat="44.84295379480183" lon="9.43516001962576"><ele>788.8333333333334</ele><time>2026-03-29T10:23:03Z</time></trkpt><trkpt lat="44.84306776373993" lon="9.435105043543514"><ele>789.0</ele><time>2026-03-29T10:23:05Z</time></trkpt><trkpt lat="44.84312106903253" lon="9.435032521589363"><ele>789.0</ele><time>2026-03-29T10:23:06Z</time></trkpt><trkpt lat="44.84316600197921" lon="9.434935055406383"><ele>789.0</ele><time>2026-03-29T10:23:07Z</time></trkpt><trkpt lat="44.8432955842882" lon="9.434865694981866"><ele>789.0</ele><time>2026-03-29T10:23:09Z</time></trkpt><trkpt lat="44.84338459107551" lon="9.434843962067639"><ele>789.0</ele><time>2026-03-29T10:23:10Z</time></trkpt><trkpt lat="44.843465527980214" lon="9.434796477455095"><ele>789.0</ele><time>2026-03-29T10:23:11Z</time></trkpt><trkpt lat="44.84353748497231" lon="9.434757700809401"><ele>788.8333333333334</ele><time>2026-03-29T10:23:12Z</time></trkpt><trkpt lat="44.84360414931414" lon="9.434725822308874"><ele>788.6666666666667</ele><time>2026-03-29T10:23:13Z</time></trkpt><trkpt lat="44.84368889727749" lon="9.434691053356257"><ele>788.5</ele><time>2026-03-29T10:23:14Z</time></trkpt><trkpt lat="44.84377146429018" lon="9.43461029899059"><ele>788.3333333333334</ele><time>2026-03-29T10:23:17Z</time></trkpt><trkpt lat="44.843864208741735" lon="9.434554561514858"><ele>788.1666666666667</ele><time>2026-03-29T10:23:18Z</time></trkpt><trkpt lat="44.84393484618462" lon="9.434508836595523"><ele>788.0</ele><time>2026-03-29T10:23:19Z</time></trkpt><trkpt lat="44.84401328250391" lon="9.434494136187073"><ele>790.0</ele><time>2026-03-29T10:23:20Z</time></trkpt><trkpt lat="44.84409462632125" lon="9.434468352288976"><ele>792.0</ele><time>2026-03-29T10:23:21Z</time></trkpt><trkpt lat="44.84419035921673" lon="9.434427926809779"><ele>794.0</ele><time>2026-03-29T10:23:22Z</time></trkpt><trkpt lat="44.844262595108404" lon="9.434377998181327"><ele>796.0</ele><time>2026-03-29T10:23:23Z</time></trkpt><trkpt lat="44.844337502809616" lon="9.434342349254038"><ele>798.0</ele><time>2026-03-29T10:23:24Z</time></trkpt><trkpt lat="44.8444745679835" lon="9.434289522179272"><ele>800.0</ele><time>2026-03-29T10:23:26Z</time></trkpt><trkpt lat="44.84454365264592" lon="9.43429645006694"><ele>802.0</ele><time>2026-03-29T10:23:27Z</time></trkpt><trkpt lat="44.84467618506206" lon="9.434231526385853"><ele>804.0</ele><time>2026-03-29T10:23:29Z</time></trkpt><trkpt lat="44.844773774549495" lon="9.4341859014005"><ele>806.0</ele><time>2026-03-29T10:23:30Z</time></trkpt><trkpt lat="44.844888151886" lon="9.434143489710193"><ele>808.0</ele><time>2026-03-29T10:23:31Z</time></trkpt><trkpt lat="44.84497325160025" lon="9.434110024916698"><ele>807.9999999999999</ele><time>2026-03-29T10:23:32Z</time></trkpt><trkpt lat="44.84504838360816" lon="9.434047109924489"><ele>808.0</ele><time>2026-03-29T10:23:33Z</time></trkpt><trkpt lat="44.845132769348936" lon="9.4340340386855"><ele>808.0</ele><time>2026-03-29T10:23:34Z</time></trkpt><trkpt lat="44.845233544474944" lon="9.43403919135048"><ele>808.0</ele><time>2026-03-29T10:23:35Z</time></trkpt><trkpt lat="44.84531016938166" lon="9.434051336170992"><ele>807.9999999999999</ele><time>2026-03-29T10:23:35.999Z</time></trkpt><trkpt lat="44.8454021797462" lon="9.434017348083607"><ele>808.0</ele><time>2026-03-29T10:23:36.999Z</time></trkpt><trkpt lat="44.845505613430255" lon="9.433971242805452"><ele>808.4999999999999</ele><time>2026-03-29T10:23:37.999Z</time></trkpt><trkpt lat="44.84560551202742" lon="9.433910894119897"><ele>809.0</ele><time>2026-03-29T10:23:38.999Z</time></trkpt><trkpt lat="44.84568510722034" lon="9.43388091783201"><ele>809.5</ele><time>2026-03-29T10:23:39.999Z</time></trkpt><trkpt lat="44.84576328785442" lon="9.43386622794697"><ele>810.0</ele><time>2026-03-29T10:23:40.999Z</time></trkpt><trkpt lat="44.84579356170609" lon="9.433717083565307"><ele>810.4999999999999</ele><time>2026-03-29T10:23:42.999Z</time></trkpt><trkpt lat="44.84580682936195" lon="9.433623931930098"><ele>811.0</ele><time>2026-03-29T10:23:43.999Z</time></trkpt><trkpt lat="44.8459176427603" lon="9.433619735180198"><ele>810.25</ele><time>2026-03-29T10:23:45.999Z</time></trkpt><trkpt lat="44.84605504206045" lon="9.433662988352193"><ele>809.5</ele><time>2026-03-29T10:23:46.999Z</time></trkpt><trkpt lat="44.846182437074944" lon="9.433682272699253"><ele>808.75</ele><time>2026-03-29T10:23:47.999Z</time></trkpt><trkpt lat="44.84630290593602" lon="9.433680203789532"><ele>808.0</ele><time>2026-03-29T10:23:48.999Z</time></trkpt><trkpt lat="44.84643712923832" lon="9.433679297195154"><ele>808.0</ele><time>2026-03-29T10:23:49.999Z</time></trkpt><trkpt lat="44.846557762764384" lon="9.433681121062996"><ele>808.0</ele><time>2026-03-29T10:23:50.999Z</time></trkpt><trkpt lat="44.84666408052389" lon="9.433656732211727"><ele>808.0</ele><time>2026-03-29T10:23:52Z</time></trkpt><trkpt lat="44.84677564129929" lon="9.433601228030538"><ele>808.0</ele><time>2026-03-29T10:23:53Z</time></trkpt><trkpt lat="44.846868555245514" lon="9.433554556072151"><ele>808.0</ele><time>2026-03-29T10:23:54Z</time></trkpt><trkpt lat="44.846949224491695" lon="9.433493420853772"><ele>810.0</ele><time>2026-03-29T10:23:55Z</time></trkpt><trkpt lat="44.84701860418674" lon="9.433383024913457"><ele>812.0</ele><time>2026-03-29T10:23:56Z</time></trkpt><trkpt lat="44.847093735392676" lon="9.433253317874291"><ele>814.0</ele><time>2026-03-29T10:23:57Z</time></trkpt><trkpt lat="44.84718670119468" lon="9.43316467376678"><ele>816.0</ele><time>2026-03-29T10:23:58Z</time></trkpt><trkpt lat="44.84726047206443" lon="9.433101863437583"><ele>818.0</ele><time>2026-03-29T10:23:59Z</time></trkpt><trkpt lat="44.84736306041083" lon="9.433101678301341"><ele>818.0</ele><time>2026-03-29T10:24:01Z</time></trkpt><trkpt lat="44.8474472473531" lon="9.433073561743917"><ele>818.0</ele><time>2026-03-29T10:24:03Z</time></trkpt><trkpt lat="44.847526940783936" lon="9.432924307055256"><ele>818.0</ele><time>2026-03-29T10:24:05Z</time></trkpt><trkpt lat="44.84757352195233" lon="9.432857112047586"><ele>818.0</ele><time>2026-03-29T10:24:06Z</time></trkpt><trkpt lat="44.847623450353495" lon="9.432779433491502"><ele>818.0</ele><time>2026-03-29T10:24:07Z</time></trkpt><trkpt lat="44.84768294569571" lon="9.432681703690191"><ele>822.3333333333334</ele><time>2026-03-29T10:24:09Z</time></trkpt><trkpt lat="44.847742602553446" lon="9.432635037378283"><ele>826.6666666666667</ele><time>2026-03-29T10:24:10Z</time></trkpt><trkpt lat="44.84779826223874" lon="9.432577027568504"><ele>831.0</ele><time>2026-03-29T10:24:11Z</time></trkpt><trkpt lat="44.847855940521434" lon="9.4325001940239"><ele>835.3333333333333</ele><time>2026-03-29T10:24:12Z</time></trkpt><trkpt lat="44.847962754155844" lon="9.4323713839882"><ele>839.6666666666666</ele><time>2026-03-29T10:24:14Z</time></trkpt><trkpt lat="44.84802375618052" lon="9.432313902672668"><ele>844.0</ele><time>2026-03-29T10:24:15Z</time></trkpt><trkpt lat="44.84809201139015" lon="9.432258208207426"><ele>843.9999999999999</ele><time>2026-03-29T10:24:16Z</time></trkpt><trkpt lat="44.84816014276893" lon="9.432214652879596"><ele>844.0</ele><time>2026-03-29T10:24:17Z</time></trkpt><trkpt lat="44.848235277825445" lon="9.432186908088683"><ele>844.0</ele><time>2026-03-29T10:24:18Z</time></trkpt><trkpt lat="44.848301162742175" lon="9.432169988553813"><ele>844.0</ele><time>2026-03-29T10:24:19Z</time></trkpt><trkpt lat="44.84840784386607" lon="9.432124627776096"><ele>843.9999999999999</ele><time>2026-03-29T10:24:21Z</time></trkpt><trkpt lat="44.848469269647026" lon="9.432019418427215"><ele>844.0</ele><time>2026-03-29T10:24:23Z</time></trkpt><trkpt lat="44.848485078030876" lon="9.431889604184377"><ele>848.2</ele><time>2026-03-29T10:24:25Z</time></trkpt><trkpt lat="44.84856615437779" lon="9.431847568487102"><ele>852.4000000000001</ele><time>2026-03-29T10:24:29Z</time></trkpt><trkpt lat="44.848654726581785" lon="9.431872417223953"><ele>856.6</ele><time>2026-03-29T10:24:32Z</time></trkpt><trkpt lat="44.848774794036466" lon="9.431842280956507"><ele>860.8</ele><time>2026-03-29T10:24:35Z</time></trkpt><trkpt lat="44.848872408341485" lon="9.43183610739595"><ele>865.0</ele><time>2026-03-29T10:24:36Z</time></trkpt><trkpt lat="44.84898175393951" lon="9.431768438934972"><ele>865.0</ele><time>2026-03-29T10:24:37Z</time></trkpt><trkpt lat="44.84905623862583" lon="9.431700740815382"><ele>865.0</ele><time>2026-03-29T10:24:38Z</time></trkpt><trkpt lat="44.84912710651304" lon="9.431629457482511"><ele>865.0</ele><time>2026-03-29T10:24:39Z</time></trkpt><trkpt lat="44.84920375137098" lon="9.4316105159318"><ele>865.0</ele><time>2026-03-29T10:24:40Z</time></trkpt><trkpt lat="44.84931993098165" lon="9.431603929174452"><ele>865.0</ele><time>2026-03-29T10:24:42Z</time></trkpt><trkpt lat="44.84939071989123" lon="9.431658661205894"><ele>866.8</ele><time>2026-03-29T10:24:43Z</time></trkpt><trkpt lat="44.84951204763358" lon="9.431625581837944"><ele>868.6</ele><time>2026-03-29T10:24:45Z</time></trkpt><trkpt lat="44.849613183429135" lon="9.431554148704066"><ele>870.4000000000001</ele><time>2026-03-29T10:24:47Z</time></trkpt><trkpt lat="44.84969043631805" lon="9.431504602808419"><ele>872.2</ele><time>2026-03-29T10:24:49Z</time></trkpt><trkpt lat="44.84974410871957" lon="9.4314103856386"><ele>874.0</ele><time>2026-03-29T10:24:51Z</time></trkpt><trkpt lat="44.84978999345942" lon="9.431285448008577"><ele>881.0</ele><time>2026-03-29T10:24:53Z</time></trkpt><trkpt lat="44.8498381296476" lon="9.431116388964334"><ele>881.0</ele><time>2026-03-29T10:24:55Z</time></trkpt><trkpt lat="44.84986884136016" lon="9.431027748377502"><ele>881.0</ele><time>2026-03-29T10:24:56Z</time></trkpt><trkpt lat="44.84992723456643" lon="9.430964758154044"><ele>881.0</ele><time>2026-03-29T10:24:57Z</time></trkpt><trkpt lat="44.85002385210652" lon="9.430960150886444"><ele>881.0</ele><time>2026-03-29T10:24:59Z</time></trkpt><trkpt lat="44.85008797315934" lon="9.43091974785876"><ele>881.0</ele><time>2026-03-29T10:25:02Z</time></trkpt></trkseg><trkseg><trkpt lat="44.85005588920622" lon="9.430863801274285"><ele>881.0</ele><time>2026-03-29T10:39:55Z</time></trkpt><trkpt lat="44.850002022005874" lon="9.430792054028206"><ele>880.9999999999999</ele><time>2026-03-29T10:40:10Z</time></trkpt><trkpt lat="44.850091621113855" lon="9.430604627765831"><ele>880.9999999999999</ele><time>2026-03-29T10:40:17Z</time></trkpt><trkpt lat="44.85017740213113" lon="9.430656190436064"><ele>881.0</ele><time>2026-03-29T10:40:20Z</time></trkpt><trkpt lat="44.85025836227044" lon="9.430672328883908"><ele>881.0</ele><time>2026-03-29T10:40:22Z</time></trkpt><trkpt lat="44.85034614892399" lon="9.430722345931894"><ele>882.8333333333334</ele><time>2026-03-29T10:40:24Z</time></trkpt><trkpt lat="44.85039519902837" lon="9.430655939008544"><ele>884.6666666666667</ele><time>2026-03-29T10:40:25Z</time></trkpt><trkpt lat="44.8504499826576" lon="9.430579153008802"><ele>886.5</ele><time>2026-03-29T10:40:27Z</time></trkpt><trkpt lat="44.850516455662195" lon="9.430510346778886"><ele>888.3333333333333</ele><time>2026-03-29T10:40:29Z</time></trkpt><trkpt lat="44.85053567630806" lon="9.430415146414944"><ele>890.1666666666666</ele><time>2026-03-29T10:40:31Z</time></trkpt><trkpt lat="44.85059664554663" lon="9.430315971272782"><ele>892.0</ele><time>2026-03-29T10:40:33Z</time></trkpt><trkpt lat="44.850625020594215" lon="9.4301931430151"><ele>895.4000000000001</ele><time>2026-03-29T10:40:35Z</time></trkpt><trkpt lat="44.85061303646274" lon="9.430285830296246"><ele>898.8000000000001</ele><time>2026-03-29T10:41:47Z</time></trkpt><trkpt lat="44.85066744692115" lon="9.430178832825858"><ele>902.2</ele><time>2026-03-29T10:42:08Z</time></trkpt><trkpt lat="44.850829393506274" lon="9.430162534378404"><ele>905.6</ele><time>2026-03-29T10:42:11Z</time></trkpt><trkpt lat="44.850892617087716" lon="9.43009427328883"><ele>909.0</ele><time>2026-03-29T10:42:13Z</time></trkpt><trkpt lat="44.85090893619191" lon="9.42999225533457"><ele>909.0</ele><time>2026-03-29T10:42:14Z</time></trkpt><trkpt lat="44.850930174798116" lon="9.4298332417791"><ele>909.0000000000001</ele><time>2026-03-29T10:42:16Z</time></trkpt><trkpt lat="44.85097735016696" lon="9.42975553672492"><ele>909.0000000000001</ele><time>2026-03-29T10:42:18Z</time></trkpt><trkpt lat="44.8510207824359" lon="9.429562839289778"><ele>909.0</ele><time>2026-03-29T10:42:20Z</time></trkpt><trkpt lat="44.851025514452104" lon="9.429471053102114"><ele>909.0</ele><time>2026-03-29T10:42:21Z</time></trkpt><trkpt lat="44.85110561313954" lon="9.429417442669111"><ele>913.6</ele><time>2026-03-29T10:42:23Z</time></trkpt><trkpt lat="44.85115892060371" lon="9.42936330811601"><ele>918.2</ele><time>2026-03-29T10:42:25Z</time></trkpt><trkpt lat="44.85124507597763" lon="9.429346165491394"><ele>922.8000000000001</ele><time>2026-03-29T10:42:28Z</time></trkpt><trkpt lat="44.85132624526912" lon="9.42936022156017"><ele>927.4000000000001</ele><time>2026-03-29T10:42:30.999Z</time></trkpt><trkpt lat="44.851441017650934" lon="9.429262617954523"><ele>932.0</ele><time>2026-03-29T10:42:33.999Z</time></trkpt><trkpt lat="44.851657211084195" lon="9.429199887914512"><ele>932.0</ele><time>2026-03-29T10:42:38.999Z</time></trkpt><trkpt lat="44.85173402314" lon="9.429160232017795"><ele>932.0</ele><time>2026-03-29T10:42:39.999Z</time></trkpt><trkpt lat="44.85180283998781" lon="9.429131916598005"><ele>932.0</ele><time>2026-03-29T10:42:40.999Z</time></trkpt><trkpt lat="44.85187569290583" lon="9.42909092366966"><ele>932.0</ele><time>2026-03-29T10:42:41.999Z</time></trkpt><trkpt lat="44.85207400715104" lon="9.429063902011567"><ele>932.0</ele><time>2026-03-29T10:42:47Z</time></trkpt><trkpt lat="44.85221463687427" lon="9.429013794613658"><ele>934.5000000000001</ele><time>2026-03-29T10:42:50Z</time></trkpt><trkpt lat="44.8522879154972" lon="9.428970236480328"><ele>937.0</ele><time>2026-03-29T10:42:53Z</time></trkpt><trkpt lat="44.852363280340185" lon="9.428965366307061"><ele>939.5</ele><time>2026-03-29T10:42:54Z</time></trkpt><trkpt lat="44.85245307930534" lon="9.428942523491463"><ele>942.0</ele><time>2026-03-29T10:42:56Z</time></trkpt><trkpt lat="44.85253247209244" lon="9.428920486824472"><ele>944.5000000000001</ele><time>2026-03-29T10:43:00Z</time></trkpt><trkpt lat="44.852605082661846" lon="9.428858239926475"><ele>947.0</ele><time>2026-03-29T10:43:03Z</time></trkpt><trkpt lat="44.85267253968749" lon="9.428775167492885"><ele>951.5000000000001</ele><time>2026-03-29T10:43:05Z</time></trkpt><trkpt lat="44.85274459768727" lon="9.428740873487186"><ele>956.0</ele><time>2026-03-29T10:43:07Z</time></trkpt><trkpt lat="44.85280733097746" lon="9.428710524360662"><ele>960.5</ele><time>2026-03-29T10:43:09Z</time></trkpt><trkpt lat="44.852894815343376" lon="9.42870771953218"><ele>965.0</ele><time>2026-03-29T10:43:11Z</time></trkpt><trkpt lat="44.85293122001931" lon="9.428596418309983"><ele>969.5000000000001</ele><time>2026-03-29T10:43:14Z</time></trkpt><trkpt lat="44.85298739259421" lon="9.42852097913719"><ele>974.0</ele><time>2026-03-29T10:43:24Z</time></trkpt><trkpt lat="44.85296529354042" lon="9.428431622982897"><ele>974.0000000000001</ele><time>2026-03-29T10:43:26Z</time></trkpt><trkpt lat="44.85294574500697" lon="9.428343358431697"><ele>974.0</ele><time>2026-03-29T10:43:27Z</time></trkpt><trkpt lat="44.8529301758005" lon="9.42825077274444"><ele>974.0</ele><time>2026-03-29T10:43:28Z</time></trkpt><trkpt lat="44.852927405512276" lon="9.428158403950057"><ele>974.0</ele><time>2026-03-29T10:43:29Z</time></trkpt><trkpt lat="44.85294819883518" lon="9.42807274362622"><ele>974.0000000000001</ele><time>2026-03-29T10:43:33Z</time></trkpt><trkpt lat="44.85301123324544" lon="9.428073672481839"><ele>974.0</ele><time>2026-03-29T10:44:03Z</time></trkpt><trkpt lat="44.853034522742014" lon="9.428250566813652"><ele>974.0</ele><time>2026-03-29T10:44:06Z</time></trkpt><trkpt lat="44.85311498157704" lon="9.428353962904364"><ele>974.0000000000001</ele><time>2026-03-29T10:44:08Z</time></trkpt><trkpt lat="44.85318225272641" lon="9.428387310129231"><ele>974.0000000000001</ele><time>2026-03-29T10:44:09Z</time></trkpt><trkpt lat="44.85325673611796" lon="9.42838630012362"><ele>974.0</ele><time>2026-03-29T10:44:10Z</time></trkpt><trkpt lat="44.85332240673854" lon="9.428377644478319"><ele>974.0</ele><time>2026-03-29T10:44:12Z</time></trkpt><trkpt lat="44.853505890231155" lon="9.42839980112065"><ele>969.1666666666667</ele><time>2026-03-29T10:44:24Z</time></trkpt><trkpt lat="44.853593293472976" lon="9.428482691671135"><ele>964.3333333333334</ele><time>2026-03-29T10:44:26Z</time></trkpt><trkpt lat="44.85368198577246" lon="9.428513540856928"><ele>959.5</ele><time>2026-03-29T10:44:28Z</time></trkpt><trkpt lat="44.85374426530816" lon="9.428539798889878"><ele>954.6666666666667</ele><time>2026-03-29T10:44:31Z</time></trkpt><trkpt lat="44.85378252450483" lon="9.428623850036963"><ele>949.8333333333334</ele><time>2026-03-29T10:44:33Z</time></trkpt><trkpt lat="44.85383220133083" lon="9.42867971490943"><ele>945.0</ele><time>2026-03-29T10:44:35Z</time></trkpt><trkpt lat="44.85387018115664" lon="9.428806662406195"><ele>945.0</ele><time>2026-03-29T10:44:36.999Z</time></trkpt><trkpt lat="44.853942803963314" lon="9.428845907335015"><ele>945.0</ele><time>2026-03-29T10:44:38.999Z</time></trkpt><trkpt lat="44.85401525211768" lon="9.428870847730716"><ele>945.0</ele><time>2026-03-29T10:44:40.999Z</time></trkpt><trkpt lat="44.854125658842115" lon="9.428686599023443"><ele>945.0</ele><time>2026-03-29T10:44:49.999Z</time></trkpt><trkpt lat="44.854164526013" lon="9.42860696176799"><ele>945.0</ele><time>2026-03-29T10:44:50.999Z</time></trkpt><trkpt lat="44.854226058674264" lon="9.428480169708964"><ele>945.0</ele><time>2026-03-29T10:44:51.999Z</time></trkpt><trkpt lat="44.85424609739047" lon="9.42835242244687"><ele>945.0</ele><time>2026-03-29T10:44:52.999Z</time></trkpt><trkpt lat="44.85427917957927" lon="9.428254156222833"><ele>945.0</ele><time>2026-03-29T10:44:53.999Z</time></trkpt><trkpt lat="44.854408473008746" lon="9.4281574248751"><ele>945.0</ele><time>2026-03-29T10:44:56.999Z</time></trkpt><trkpt lat="44.8544127640595" lon="9.42803355783345"><ele>945.0</ele><time>2026-03-29T10:44:58Z</time></trkpt><trkpt lat="44.85443161992368" lon="9.427923087015712"><ele>937.8</ele><time>2026-03-29T10:44:59Z</time></trkpt><trkpt lat="44.85445817025475" lon="9.42777987582071"><ele>930.6</ele><time>2026-03-29T10:45:01Z</time></trkpt><trkpt lat="44.854541492957686" lon="9.427689573962223"><ele>923.4000000000001</ele><time>2026-03-29T10:45:03Z</time></trkpt><trkpt lat="44.85464072029841" lon="9.427711352443854"><ele>916.2</ele><time>2026-03-29T10:45:05Z</time></trkpt><trkpt lat="44.85470620863502" lon="9.427663041872806"><ele>909.0</ele><time>2026-03-29T10:45:06Z</time></trkpt><trkpt lat="44.85477235825266" lon="9.427570754896196"><ele>909.0</ele><time>2026-03-29T10:45:08Z</time></trkpt><trkpt lat="44.85483168698333" lon="9.427416569014284"><ele>909.0</ele><time>2026-03-29T10:45:10Z</time></trkpt><trkpt lat="44.85489714271235" lon="9.427455163475143"><ele>909.0</ele><time>2026-03-29T10:45:13Z</time></trkpt><trkpt lat="44.854943790009806" lon="9.427517088639558"><ele>909.0</ele><time>2026-03-29T10:45:16Z</time></trkpt><trkpt lat="44.855002440273964" lon="9.427599799173723"><ele>909.0</ele><time>2026-03-29T10:45:17Z</time></trkpt><trkpt lat="44.855031994037645" lon="9.427685418894582"><ele>909.0</ele><time>2026-03-29T10:45:18Z</time></trkpt><trkpt lat="44.85506394987479" lon="9.42779089597858"><ele>904.8333333333334</ele><time>2026-03-29T10:45:19Z</time></trkpt><trkpt lat="44.85512368621931" lon="9.427882478716201"><ele>900.6666666666667</ele><time>2026-03-29T10:45:20Z</time></trkpt><trkpt lat="44.855197695932084" lon="9.427945622635551"><ele>896.5</ele><time>2026-03-29T10:45:21Z</time></trkpt><trkpt lat="44.85528652254027" lon="9.42795301396183"><ele>892.3333333333334</ele><time>2026-03-29T10:45:22Z</time></trkpt><trkpt lat="44.855367938531955" lon="9.427965007967392"><ele>888.1666666666667</ele><time>2026-03-29T10:45:23Z</time></trkpt><trkpt lat="44.855452919869656" lon="9.427913197476641"><ele>884.0</ele><time>2026-03-29T10:45:24Z</time></trkpt><trkpt lat="44.855576768155466" lon="9.427984390937487"><ele>882.3333333333334</ele><time>2026-03-29T10:45:26Z</time></trkpt><trkpt lat="44.85564561368907" lon="9.427911983578957"><ele>880.6666666666667</ele><time>2026-03-29T10:45:28Z</time></trkpt><trkpt lat="44.8557310951687" lon="9.427804289093375"><ele>879.0</ele><time>2026-03-29T10:45:29Z</time></trkpt><trkpt lat="44.85577990622796" lon="9.42773392760904"><ele>877.3333333333333</ele><time>2026-03-29T10:45:30Z</time></trkpt><trkpt lat="44.855810991816746" lon="9.427650275905759"><ele>875.6666666666666</ele><time>2026-03-29T10:45:38Z</time></trkpt><trkpt lat="44.8558428791501" lon="9.427529467816376"><ele>874.0</ele><time>2026-03-29T10:45:40Z</time></trkpt><trkpt lat="44.855862046068125" lon="9.427438292034996"><ele>874.0</ele><time>2026-03-29T10:45:42Z</time></trkpt><trkpt lat="44.8558992047869" lon="9.427351181353627"><ele>874.0000000000001</ele><time>2026-03-29T10:45:43Z</time></trkpt><trkpt lat="44.85594498246636" lon="9.4272383918699"><ele>874.0000000000001</ele><time>2026-03-29T10:45:46Z</time></trkpt><trkpt lat="44.855944519612684" lon="9.427018805222351"><ele>874.0</ele><time>2026-03-29T10:45:48Z</time></trkpt><trkpt lat="44.85594454122896" lon="9.426908707143587"><ele>874.0</ele><time>2026-03-29T10:45:49Z</time></trkpt><trkpt lat="44.85595923956458" lon="9.426803793844464"><ele>868.8333333333333</ele><time>2026-03-29T10:45:50Z</time></trkpt><trkpt lat="44.85602693583018" lon="9.42680810033332"><ele>863.6666666666666</ele><time>2026-03-29T10:45:55Z</time></trkpt><trkpt lat="44.8560992847033" lon="9.42689752614669"><ele>858.5</ele><time>2026-03-29T10:45:57Z</time></trkpt><trkpt lat="44.85614568261255" lon="9.426970010202373"><ele>853.3333333333333</ele><time>2026-03-29T10:45:58Z</time></trkpt><trkpt lat="44.85623612514908" lon="9.427067331976284"><ele>848.1666666666666</ele><time>2026-03-29T10:46:00Z</time></trkpt><trkpt lat="44.85625740207188" lon="9.427200481123814"><ele>843.0</ele><time>2026-03-29T10:46:01Z</time></trkpt><trkpt lat="44.85629807533051" lon="9.427321862569064"><ele>843.0</ele><time>2026-03-29T10:46:02Z</time></trkpt><trkpt lat="44.85630190422091" lon="9.427419081384011"><ele>843.0</ele><time>2026-03-29T10:46:03Z</time></trkpt><trkpt lat="44.856269506712266" lon="9.42752496521492"><ele>843.0</ele><time>2026-03-29T10:46:04Z</time></trkpt><trkpt lat="44.85624310895162" lon="9.427643703736264"><ele>843.0</ele><time>2026-03-29T10:46:05Z</time></trkpt><trkpt lat="44.85624750196414" lon="9.427744763894093"><ele>843.0</ele><time>2026-03-29T10:46:07Z</time></trkpt><trkpt lat="44.85621981231441" lon="9.427851124220355"><ele>843.0</ele><time>2026-03-29T10:46:11Z</time></trkpt><trkpt lat="44.85617357419934" lon="9.427940312518334"><ele>844.6666666666666</ele><time>2026-03-29T10:46:14Z</time></trkpt><trkpt lat="44.85615971915909" lon="9.428032956195223"><ele>846.3333333333333</ele><time>2026-03-29T10:46:16Z</time></trkpt><trkpt lat="44.85619577437111" lon="9.428180017829773"><ele>848.0</ele><time>2026-03-29T10:46:18Z</time></trkpt><trkpt lat="44.85624778062123" lon="9.428314411454068"><ele>849.6666666666666</ele><time>2026-03-29T10:46:19Z</time></trkpt><trkpt lat="44.85624726222834" lon="9.428440097467066"><ele>851.3333333333333</ele><time>2026-03-29T10:46:20Z</time></trkpt><trkpt lat="44.85621620381924" lon="9.428522398781334"><ele>853.0</ele><time>2026-03-29T10:46:21Z</time></trkpt><trkpt lat="44.85620636283473" lon="9.428666304826882"><ele>853.0</ele><time>2026-03-29T10:46:23Z</time></trkpt><trkpt lat="44.85615718088442" lon="9.428721762212975"><ele>853.0</ele><time>2026-03-29T10:46:26Z</time></trkpt><trkpt lat="44.85613746222477" lon="9.428829122893122"><ele>853.0</ele><time>2026-03-29T10:46:28Z</time></trkpt><trkpt lat="44.85614217486815" lon="9.42892138806199"><ele>853.0</ele><time>2026-03-29T10:46:30Z</time></trkpt><trkpt lat="44.85610687891337" lon="9.429041100439985"><ele>853.0</ele><time>2026-03-29T10:46:32Z</time></trkpt><trkpt lat="44.85607160576447" lon="9.429117986867928"><ele>853.0</ele><time>2026-03-29T10:46:35Z</time></trkpt><trkpt lat="44.856031674280146" lon="9.429224144465135"><ele>853.0</ele><time>2026-03-29T10:46:39Z</time></trkpt><trkpt lat="44.85600966782042" lon="9.429308801861547"><ele>861.5</ele><time>2026-03-29T10:46:41Z</time></trkpt><trkpt lat="44.856037615264746" lon="9.429442871962328"><ele>870.0</ele><time>2026-03-29T10:46:43.999Z</time></trkpt><trkpt lat="44.855986806356164" lon="9.430326091506009"><ele>873.2</ele><time>2026-03-29T10:46:47.999Z</time></trkpt><trkpt lat="44.85603229022175" lon="9.430432945422297"><ele>876.4</ele><time>2026-03-29T10:46:48.999Z</time></trkpt><trkpt lat="44.8561964553314" lon="9.430565795520977"><ele>879.5999999999999</ele><time>2026-03-29T10:46:50.999Z</time></trkpt><trkpt lat="44.8562647400575" lon="9.430591989164748"><ele>882.8</ele><time>2026-03-29T10:46:51.999Z</time></trkpt><trkpt lat="44.856332539730175" lon="9.430646708580028"><ele>886.0</ele><time>2026-03-29T10:46:53Z</time></trkpt><trkpt lat="44.85639620347285" lon="9.430665677290074"><ele>888.5999999999999</ele><time>2026-03-29T10:46:54Z</time></trkpt><trkpt lat="44.85643906120371" lon="9.43074388126843"><ele>891.1999999999999</ele><time>2026-03-29T10:46:55Z</time></trkpt><trkpt lat="44.85631330925362" lon="9.43077739924474"><ele>893.8000000000001</ele><time>2026-03-29T10:46:56Z</time></trkpt><trkpt lat="44.85626991492131" lon="9.430939302442104"><ele>896.4000000000001</ele><time>2026-03-29T10:46:58Z</time></trkpt><trkpt lat="44.85620497034936" lon="9.43098155439638"><ele>899.0</ele><time>2026-03-29T10:46:59Z</time></trkpt><trkpt lat="44.85614192429285" lon="9.43098761729949"><ele>899.0000000000001</ele><time>2026-03-29T10:47:00Z</time></trkpt><trkpt lat="44.85606965506733" lon="9.430961600901593"><ele>899.0</ele><time>2026-03-29T10:47:01Z</time></trkpt><trkpt lat="44.856004882412314" lon="9.430954374126545"><ele>899.0</ele><time>2026-03-29T10:47:02Z</time></trkpt><trkpt lat="44.85590088622969" lon="9.430980721474787"><ele>899.0</ele><time>2026-03-29T10:47:03Z</time></trkpt><trkpt lat="44.85582961131865" lon="9.431031116836552"><ele>899.0000000000001</ele><time>2026-03-29T10:47:04Z</time></trkpt><trkpt lat="44.85576345337405" lon="9.431012474949346"><ele>899.0</ele><time>2026-03-29T10:47:05Z</time></trkpt><trkpt lat="44.85567707348942" lon="9.431133839561026"><ele>902.0</ele><time>2026-03-29T10:47:07Z</time></trkpt><trkpt lat="44.85560492884266" lon="9.431264986989117"><ele>905.0000000000001</ele><time>2026-03-29T10:47:09Z</time></trkpt><trkpt lat="44.855497674409015" lon="9.43122505681685"><ele>908.0000000000001</ele><time>2026-03-29T10:47:11Z</time></trkpt><trkpt lat="44.8554333699136" lon="9.431329747298712"><ele>911.0</ele><time>2026-03-29T10:47:13Z</time></trkpt><trkpt lat="44.85534476818501" lon="9.431420144329577"><ele>914.0</ele><time>2026-03-29T10:47:14Z</time></trkpt><trkpt lat="44.85529283603303" lon="9.431501801064142"><ele>914.6</ele><time>2026-03-29T10:47:15Z</time></trkpt><trkpt lat="44.85522936426018" lon="9.431584863716676"><ele>915.2</ele><time>2026-03-29T10:47:16Z</time></trkpt><trkpt lat="44.85516571344258" lon="9.43164463263638"><ele>915.8000000000001</ele><time>2026-03-29T10:47:17Z</time></trkpt><trkpt lat="44.85510147281104" lon="9.431657811591633"><ele>916.4000000000001</ele><time>2026-03-29T10:47:18Z</time></trkpt><trkpt lat="44.8549728271207" lon="9.43169182626321"><ele>917.0</ele><time>2026-03-29T10:47:20Z</time></trkpt><trkpt lat="44.854839988231404" lon="9.431797884808807"><ele>919.3333333333334</ele><time>2026-03-29T10:47:22Z</time></trkpt><trkpt lat="44.85473877445072" lon="9.431807880653741"><ele>921.6666666666667</ele><time>2026-03-29T10:47:24Z</time></trkpt><trkpt lat="44.85467184952257" lon="9.431701296336385"><ele>924.0</ele><time>2026-03-29T10:47:26Z</time></trkpt><trkpt lat="44.854704993667646" lon="9.431607479276108"><ele>926.3333333333333</ele><time>2026-03-29T10:47:32Z</time></trkpt><trkpt lat="44.85472740129886" lon="9.431504307996613"><ele>928.6666666666666</ele><time>2026-03-29T10:47:35Z</time></trkpt><trkpt lat="44.85477250756087" lon="9.431425463877954"><ele>931.0</ele><time>2026-03-29T10:47:38Z</time></trkpt><trkpt lat="44.85472495367467" lon="9.431329346003254"><ele>931.4</ele><time>2026-03-29T10:47:40Z</time></trkpt><trkpt lat="44.85470138909443" lon="9.43111968452664"><ele>931.8</ele><time>2026-03-29T10:47:42Z</time></trkpt><trkpt lat="44.8546630515643" lon="9.431002384991501"><ele>932.1999999999999</ele><time>2026-03-29T10:47:43Z</time></trkpt><trkpt lat="44.85464617932533" lon="9.430879536772006"><ele>932.5999999999999</ele><time>2026-03-29T10:47:44Z</time></trkpt><trkpt lat="44.85464870537461" lon="9.430751252615158"><ele>933.0</ele><time>2026-03-29T10:47:45Z</time></trkpt><trkpt lat="44.85465385149663" lon="9.43058422287771"><ele>932.3333333333334</ele><time>2026-03-29T10:47:46Z</time></trkpt><trkpt lat="44.854646587997614" lon="9.430432248413576"><ele>931.6666666666667</ele><time>2026-03-29T10:47:47Z</time></trkpt><trkpt lat="44.8546160919377" lon="9.430316848613831"><ele>931.0</ele><time>2026-03-29T10:47:48Z</time></trkpt><trkpt lat="44.854601830248" lon="9.43022822422646"><ele>930.3333333333334</ele><time>2026-03-29T10:47:49Z</time></trkpt><trkpt lat="44.85456646170883" lon="9.430064732845288"><ele>929.6666666666667</ele><time>2026-03-29T10:47:50Z</time></trkpt><trkpt lat="44.8545471541871" lon="9.429974798808054"><ele>929.0</ele><time>2026-03-29T10:47:51Z</time></trkpt><trkpt lat="44.85454135364911" lon="9.429868263848798"><ele>929.0000000000001</ele><time>2026-03-29T10:47:52Z</time></trkpt><trkpt lat="44.85454805658883" lon="9.429755114746653"><ele>929.0</ele><time>2026-03-29T10:47:53Z</time></trkpt><trkpt lat="44.85455579003321" lon="9.429634827693475"><ele>929.0</ele><time>2026-03-29T10:47:54Z</time></trkpt><trkpt lat="44.85453980736573" lon="9.429533028764489"><ele>929.0</ele><time>2026-03-29T10:47:55Z</time></trkpt><trkpt lat="44.85448833851383" lon="9.429420750597519"><ele>929.0000000000001</ele><time>2026-03-29T10:47:56Z</time></trkpt><trkpt lat="44.85444589829929" lon="9.429328437636814"><ele>929.0</ele><time>2026-03-29T10:47:57Z</time></trkpt><trkpt lat="44.854356341074556" lon="9.429182879523866"><ele>930.8000000000001</ele><time>2026-03-29T10:47:59Z</time></trkpt><trkpt lat="44.85427610503326" lon="9.429062266192602"><ele>932.6000000000001</ele><time>2026-03-29T10:48:01Z</time></trkpt><trkpt lat="44.85418144368191" lon="9.429012104052335"><ele>934.4</ele><time>2026-03-29T10:48:03Z</time></trkpt><trkpt lat="44.8541051380249" lon="9.42913627130384"><ele>936.2</ele><time>2026-03-29T10:48:05Z</time></trkpt><trkpt lat="44.8540679048762" lon="9.429217601476527"><ele>938.0</ele><time>2026-03-29T10:48:06Z</time></trkpt><trkpt lat="44.85402210908595" lon="9.429371602832086"><ele>938.0</ele><time>2026-03-29T10:48:08Z</time></trkpt><trkpt lat="44.85393682824482" lon="9.429436978010578"><ele>938.0</ele><time>2026-03-29T10:48:09Z</time></trkpt><trkpt lat="44.85387269103464" lon="9.429463448407216"><ele>938.0</ele><time>2026-03-29T10:48:10Z</time></trkpt><trkpt lat="44.8538218357597" lon="9.429518588868374"><ele>938.0</ele><time>2026-03-29T10:48:11Z</time></trkpt><trkpt lat="44.85380440783295" lon="9.429619914941576"><ele>938.0</ele><time>2026-03-29T10:48:12Z</time></trkpt><trkpt lat="44.8537972547901" lon="9.42970931315261"><ele>938.0</ele><time>2026-03-29T10:48:13Z</time></trkpt><trkpt lat="44.8537485235856" lon="9.429780832830541"><ele>938.0</ele><time>2026-03-29T10:48:14Z</time></trkpt><trkpt lat="44.853683534898074" lon="9.429815908329132"><ele>936.2</ele><time>2026-03-29T10:48:15Z</time></trkpt><trkpt lat="44.85362039745634" lon="9.429872422419413"><ele>934.4</ele><time>2026-03-29T10:48:16Z</time></trkpt><trkpt lat="44.853572980307845" lon="9.42995908155593"><ele>932.6000000000001</ele><time>2026-03-29T10:48:17Z</time></trkpt><trkpt lat="44.853471278143466" lon="9.430064242870923"><ele>930.8000000000001</ele><time>2026-03-29T10:48:19Z</time></trkpt><trkpt lat="44.853369078042704" lon="9.430149902638734"><ele>929.0</ele><time>2026-03-29T10:48:21Z</time></trkpt><trkpt lat="44.853270896029834" lon="9.430211193156085"><ele>926.6</ele><time>2026-03-29T10:48:23Z</time></trkpt><trkpt lat="44.85318983773683" lon="9.430341440575013"><ele>924.2</ele><time>2026-03-29T10:48:25Z</time></trkpt><trkpt lat="44.85319136250833" lon="9.430469392242285"><ele>921.8000000000001</ele><time>2026-03-29T10:48:27Z</time></trkpt><trkpt lat="44.85321092692354" lon="9.430567651040445"><ele>919.4000000000001</ele><time>2026-03-29T10:48:29Z</time></trkpt><trkpt lat="44.853130892874745" lon="9.430638078696575"><ele>917.0</ele><time>2026-03-29T10:48:31Z</time></trkpt><trkpt lat="44.85305594644035" lon="9.430678124834644"><ele>912.8</ele><time>2026-03-29T10:48:32Z</time></trkpt><trkpt lat="44.85297807163427" lon="9.430754577610605"><ele>908.6</ele><time>2026-03-29T10:48:34Z</time></trkpt><trkpt lat="44.852900504132144" lon="9.430888034571788"><ele>904.3999999999999</ele><time>2026-03-29T10:48:36Z</time></trkpt><trkpt lat="44.85282678825874" lon="9.431041024943635"><ele>900.1999999999999</ele><time>2026-03-29T10:48:38Z</time></trkpt><trkpt lat="44.85280724546106" lon="9.431149297288533"><ele>896.0</ele><time>2026-03-29T10:48:40Z</time></trkpt><trkpt lat="44.85276679817659" lon="9.43126393289367"><ele>893.4</ele><time>2026-03-29T10:48:42Z</time></trkpt><trkpt lat="44.85273654974314" lon="9.431364972575679"><ele>890.8</ele><time>2026-03-29T10:48:44Z</time></trkpt><trkpt lat="44.852732538980334" lon="9.43149692066991"><ele>888.1999999999999</ele><time>2026-03-29T10:48:46Z</time></trkpt><trkpt lat="44.85277058185518" lon="9.431628115062056"><ele>885.5999999999999</ele><time>2026-03-29T10:48:48Z</time></trkpt><trkpt lat="44.852842848684105" lon="9.431774997365347"><ele>883.0</ele><time>2026-03-29T10:48:50Z</time></trkpt><trkpt lat="44.85288683029309" lon="9.431845161554103"><ele>882.9999999999999</ele><time>2026-03-29T10:48:51Z</time></trkpt><trkpt lat="44.85287568834201" lon="9.431969482796639"><ele>883.0</ele><time>2026-03-29T10:48:53Z</time></trkpt><trkpt lat="44.852851232378875" lon="9.432071574924485"><ele>883.0</ele><time>2026-03-29T10:48:54Z</time></trkpt><trkpt lat="44.85283894416346" lon="9.432165328490951"><ele>883.0</ele><time>2026-03-29T10:48:55Z</time></trkpt><trkpt lat="44.85281814261569" lon="9.432332578701477"><ele>882.9999999999999</ele><time>2026-03-29T10:48:57Z</time></trkpt><trkpt lat="44.85277162068356" lon="9.432440337633423"><ele>883.0</ele><time>2026-03-29T10:48:59Z</time></trkpt><trkpt lat="44.852771721482206" lon="9.432529853180348"><ele>882.3333333333333</ele><time>2026-03-29T10:49:00Z</time></trkpt><trkpt lat="44.85277890523768" lon="9.432633848758833"><ele>881.6666666666666</ele><time>2026-03-29T10:49:01Z</time></trkpt><trkpt lat="44.85277278556506" lon="9.432723691328105"><ele>881.0</ele><time>2026-03-29T10:49:02Z</time></trkpt><trkpt lat="44.85283725380971" lon="9.43286657732816"><ele>880.3333333333333</ele><time>2026-03-29T10:49:04Z</time></trkpt><trkpt lat="44.852807491934264" lon="9.432992260577965"><ele>879.6666666666666</ele><time>2026-03-29T10:49:06Z</time></trkpt><trkpt lat="44.852759624904" lon="9.433084755249855"><ele>879.0</ele><time>2026-03-29T10:49:07Z</time></trkpt><trkpt lat="44.85271639537628" lon="9.43316350216947"><ele>878.0</ele><time>2026-03-29T10:49:08Z</time></trkpt><trkpt lat="44.8526759956071" lon="9.43323849458079"><ele>877.0000000000001</ele><time>2026-03-29T10:49:09Z</time></trkpt><trkpt lat="44.85260761513325" lon="9.433391769275845"><ele>876.0000000000001</ele><time>2026-03-29T10:49:11Z</time></trkpt><trkpt lat="44.85262845352274" lon="9.433622654062935"><ele>875.0</ele><time>2026-03-29T10:49:13Z</time></trkpt><trkpt lat="44.852623330803986" lon="9.433715530984463"><ele>874.0</ele><time>2026-03-29T10:49:14Z</time></trkpt><trkpt lat="44.85254934642834" lon="9.43384517254551"><ele>869.1666666666666</ele><time>2026-03-29T10:49:16Z</time></trkpt><trkpt lat="44.852486013052946" lon="9.433931812848018"><ele>864.3333333333333</ele><time>2026-03-29T10:49:17Z</time></trkpt><trkpt lat="44.85243373654268" lon="9.434007799613399"><ele>859.5</ele><time>2026-03-29T10:49:18Z</time></trkpt><trkpt lat="44.85237154665911" lon="9.434091468203496"><ele>854.6666666666667</ele><time>2026-03-29T10:49:20Z</time></trkpt><trkpt lat="44.8523286052782" lon="9.433970670442797"><ele>849.8333333333334</ele><time>2026-03-29T10:49:25Z</time></trkpt><trkpt lat="44.85228313101115" lon="9.433882866335349"><ele>845.0</ele><time>2026-03-29T10:49:28Z</time></trkpt><trkpt lat="44.852258619514814" lon="9.433778623888628"><ele>845.0000000000001</ele><time>2026-03-29T10:49:31Z</time></trkpt><trkpt lat="44.85221707005137" lon="9.433695198880368"><ele>845.0</ele><time>2026-03-29T10:49:33Z</time></trkpt><trkpt lat="44.852193423400465" lon="9.433591254675191"><ele>845.0</ele><time>2026-03-29T10:49:35Z</time></trkpt><trkpt lat="44.852197581026545" lon="9.433451212152027"><ele>845.0</ele><time>2026-03-29T10:49:38Z</time></trkpt><trkpt lat="44.85220155456053" lon="9.433342897336122"><ele>845.0000000000001</ele><time>2026-03-29T10:49:40Z</time></trkpt><trkpt lat="44.852235344310294" lon="9.433252500688038"><ele>845.0</ele><time>2026-03-29T10:49:42Z</time></trkpt><trkpt lat="44.85227643874236" lon="9.43316413059867"><ele>845.0</ele><time>2026-03-29T10:49:43Z</time></trkpt><trkpt lat="44.85228307694915" lon="9.433015619461406"><ele>845.0</ele><time>2026-03-29T10:49:45Z</time></trkpt><trkpt lat="44.85229547486164" lon="9.432867435180093"><ele>845.0</ele><time>2026-03-29T10:49:47Z</time></trkpt><trkpt lat="44.85234642013839" lon="9.432736572774056"><ele>845.0</ele><time>2026-03-29T10:49:49Z</time></trkpt><trkpt lat="44.852361304207776" lon="9.432630330128667"><ele>845.0</ele><time>2026-03-29T10:49:50Z</time></trkpt><trkpt lat="44.85228710916175" lon="9.432501357555486"><ele>846.8</ele><time>2026-03-29T10:49:52Z</time></trkpt><trkpt lat="44.852218492146136" lon="9.432434378491674"><ele>848.6</ele><time>2026-03-29T10:49:53Z</time></trkpt><trkpt lat="44.85216061625055" lon="9.432345150372438"><ele>850.4000000000001</ele><time>2026-03-29T10:49:54Z</time></trkpt><trkpt lat="44.85211765281967" lon="9.432234272072446"><ele>852.2</ele><time>2026-03-29T10:49:55Z</time></trkpt><trkpt lat="44.852083004978894" lon="9.432119745563062"><ele>854.0</ele><time>2026-03-29T10:49:56Z</time></trkpt><trkpt lat="44.85200529030526" lon="9.4319983119101"><ele>855.5000000000001</ele><time>2026-03-29T10:49:58Z</time></trkpt><trkpt lat="44.85198873790619" lon="9.43190727609005"><ele>857.0</ele><time>2026-03-29T10:49:59Z</time></trkpt><trkpt lat="44.85195913800559" lon="9.431817060793612"><ele>858.5</ele><time>2026-03-29T10:50:00Z</time></trkpt><trkpt lat="44.85183987463703" lon="9.431763238393115"><ele>860.0</ele><time>2026-03-29T10:50:02Z</time></trkpt><trkpt lat="44.85177686160343" lon="9.431773031137311"><ele>861.5000000000001</ele><time>2026-03-29T10:50:03Z</time></trkpt><trkpt lat="44.85170486396537" lon="9.431662607861638"><ele>863.0</ele><time>2026-03-29T10:50:05Z</time></trkpt><trkpt lat="44.85166866034907" lon="9.431586815808263"><ele>863.0</ele><time>2026-03-29T10:50:06Z</time></trkpt><trkpt lat="44.85152254629377" lon="9.431540291918994"><ele>863.0</ele><time>2026-03-29T10:50:08Z</time></trkpt><trkpt lat="44.851459420546774" lon="9.431524196714452"><ele>863.0</ele><time>2026-03-29T10:50:09Z</time></trkpt><trkpt lat="44.85137916243174" lon="9.431474744491505"><ele>863.0</ele><time>2026-03-29T10:50:10Z</time></trkpt><trkpt lat="44.851316763183824" lon="9.431455013170519"><ele>863.0</ele><time>2026-03-29T10:50:11Z</time></trkpt><trkpt lat="44.85121630319344" lon="9.431447847277472"><ele>863.0000000000001</ele><time>2026-03-29T10:50:13Z</time></trkpt><trkpt lat="44.85110999451132" lon="9.431481457580944"><ele>863.0</ele><time>2026-03-29T10:50:15Z</time></trkpt><trkpt lat="44.85103731266863" lon="9.431475118116898"><ele>863.0</ele><time>2026-03-29T10:50:17Z</time></trkpt><trkpt lat="44.85094786618187" lon="9.431456695321197"><ele>863.0</ele><time>2026-03-29T10:50:18Z</time></trkpt><trkpt lat="44.85086649369321" lon="9.431467899063254"><ele>863.0000000000001</ele><time>2026-03-29T10:50:19Z</time></trkpt><trkpt lat="44.85078593951454" lon="9.431463070079538"><ele>863.0</ele><time>2026-03-29T10:50:20Z</time></trkpt><trkpt lat="44.85070420216216" lon="9.43147805669319"><ele>864.8</ele><time>2026-03-29T10:50:21Z</time></trkpt><trkpt lat="44.850628201781" lon="9.431486685409904"><ele>866.5999999999999</ele><time>2026-03-29T10:50:22Z</time></trkpt><trkpt lat="44.85054198907014" lon="9.431437780119259"><ele>868.4000000000001</ele><time>2026-03-29T10:50:23Z</time></trkpt><trkpt lat="44.850459718056015" lon="9.43132261512125"><ele>870.2</ele><time>2026-03-29T10:50:25Z</time></trkpt><trkpt lat="44.85039132381636" lon="9.431290057760455"><ele>872.0</ele><time>2026-03-29T10:50:26Z</time></trkpt><trkpt lat="44.85029496484303" lon="9.431183647116134"><ele>892.0</ele><time>2026-03-29T10:50:28Z</time></trkpt><trkpt lat="44.85024933096835" lon="9.431103684237069"><ele>892.0</ele><time>2026-03-29T10:50:29Z</time></trkpt><trkpt lat="44.850203915251356" lon="9.431022501683863"><ele>892.0</ele><time>2026-03-29T10:50:30Z</time></trkpt><trkpt lat="44.85016236496926" lon="9.430913025439065"><ele>892.0</ele><time>2026-03-29T10:50:32Z</time></trkpt></trkseg></trk></gpx>